<?xml version="1.0" encoding="UTF-8" standalone="no" ?>
<gpx xmlns="http://www.topografix.com/GPX/1/1" xmlns:xsi="http://www.w3.org/2001/XMLSchema-instance" xsi:schemaLocation="http://www.topografix.com/GPX/1/1 http://www.topografix.com/GPX/1/1/gpx.xsd" version="1.1" creator="VisuGPX - https://www.visugpx.com">
  <metadata>
    <name>sortie 18/03/22</name>
    <desc><![CDATA[
Temps couvert mais p.... de vent ! Circuit assez classique, c'est un nouveau test quant à la tenue de mes articulations dorsales, ça s'améliore. Pour le reste, c'est gras mais pas catastrophique mais aussi des chemins défoncés par les engins de débardage.
Situation qui ne s'améliore pas.
NOTA : dans les Arpents, après la mise à blanc, il y a eu reforestation : bien, mais cela probablement pas dans un but écolo, c'est un placement financier en replantant. des sapins du Canada distants de 2 mètres sur les lignes elles aussi à 2 mètres.. Ca poussera rapidement en hauteur mais quasi sans verdure, donc sans la moindre action sur la transformation du CO2 en O2 + C. Le fric avant tout !]]></desc>
  </metadata>
  <trk>
    <name><![CDATA[2022-03-18 09:11]]></name>
    <desc><![CDATA[<h1>OruxMaps</h1><br /><hr align="center" width="480" style="height: 2px; width: 517px"/><h2>Nom: 2022-03-18 09:11</h2><br /><p>Temps de départ: 03/18/2022 09:09</p><p>Temps d'arrivée: 03/18/2022 10:59</p><p>Distance: 26km (01:49)</p><p>Temps déplacement: 01:38</p><p>Vitesse moyenne: 14,3km/h</p><p>Vitesse moyenne: 15,8km/h</p><p>Vitess Max.: 42km/h</p><p>Altitude minimale: 208m</p><p>Altitude maximale: 292m</p><p>Vitesse d'élévation: 588,8m/h</p><p>Vitesse de descente: -778,3m/h</p><p>Gain Altitude: 487m</p><p>Perte Altitude: -473m</p><p>Temps d'élévation: 00:49</p><p>Temps de descente: 00:36</p><hr align="center" width="480" style="height: 2px; width: 517px"/>]]></desc>
    <trkseg>
      <trkpt lat="47.68628" lon="6.04575">
        <ele>238.95</ele>
        <time>2022-03-18T08:09:56Z</time>
      </trkpt>
      <trkpt lat="47.68621" lon="6.0455">
        <ele>236.8</ele>
        <time>2022-03-18T08:12:41Z</time>
      </trkpt>
      <trkpt lat="47.68639" lon="6.0454">
        <ele>239.22</ele>
        <time>2022-03-18T08:13:00Z</time>
      </trkpt>
      <trkpt lat="47.68655" lon="6.04555">
        <ele>239.04</ele>
        <time>2022-03-18T08:13:07Z</time>
      </trkpt>
      <trkpt lat="47.68669" lon="6.04574">
        <ele>239.37</ele>
        <time>2022-03-18T08:13:15Z</time>
      </trkpt>
      <trkpt lat="47.6868" lon="6.04596">
        <ele>239.6</ele>
        <time>2022-03-18T08:13:23Z</time>
      </trkpt>
      <trkpt lat="47.68689" lon="6.0462">
        <ele>239.71</ele>
        <time>2022-03-18T08:13:31Z</time>
      </trkpt>
      <trkpt lat="47.68699" lon="6.04642">
        <ele>240.55</ele>
        <time>2022-03-18T08:13:38Z</time>
      </trkpt>
      <trkpt lat="47.6871" lon="6.04666">
        <ele>241.68</ele>
        <time>2022-03-18T08:14:04Z</time>
      </trkpt>
      <trkpt lat="47.68721" lon="6.04691">
        <ele>241.37</ele>
        <time>2022-03-18T08:14:10Z</time>
      </trkpt>
      <trkpt lat="47.68731" lon="6.04716">
        <ele>241.23</ele>
        <time>2022-03-18T08:14:15Z</time>
      </trkpt>
      <trkpt lat="47.6874" lon="6.04743">
        <ele>241.21</ele>
        <time>2022-03-18T08:14:20Z</time>
      </trkpt>
      <trkpt lat="47.68748" lon="6.04772">
        <ele>241.32</ele>
        <time>2022-03-18T08:14:25Z</time>
      </trkpt>
      <trkpt lat="47.68754" lon="6.04798">
        <ele>241.21</ele>
        <time>2022-03-18T08:14:29Z</time>
      </trkpt>
      <trkpt lat="47.68761" lon="6.0483">
        <ele>240.88</ele>
        <time>2022-03-18T08:14:34Z</time>
      </trkpt>
      <trkpt lat="47.68769" lon="6.0486">
        <ele>241.12</ele>
        <time>2022-03-18T08:14:38Z</time>
      </trkpt>
      <trkpt lat="47.68779" lon="6.04886">
        <ele>241.01</ele>
        <time>2022-03-18T08:14:42Z</time>
      </trkpt>
      <trkpt lat="47.68788" lon="6.04912">
        <ele>240.68</ele>
        <time>2022-03-18T08:14:47Z</time>
      </trkpt>
      <trkpt lat="47.68803" lon="6.0493">
        <ele>239.43</ele>
        <time>2022-03-18T08:14:56Z</time>
      </trkpt>
      <trkpt lat="47.68817" lon="6.04908">
        <ele>238.71</ele>
        <time>2022-03-18T08:15:01Z</time>
      </trkpt>
      <trkpt lat="47.68837" lon="6.04918">
        <ele>238.28</ele>
        <time>2022-03-18T08:15:05Z</time>
      </trkpt>
      <trkpt lat="47.6885" lon="6.04942">
        <ele>238.74</ele>
        <time>2022-03-18T08:15:10Z</time>
      </trkpt>
      <trkpt lat="47.68863" lon="6.04966">
        <ele>239.7</ele>
        <time>2022-03-18T08:15:16Z</time>
      </trkpt>
      <trkpt lat="47.68875" lon="6.04989">
        <ele>239.99</ele>
        <time>2022-03-18T08:15:22Z</time>
      </trkpt>
      <trkpt lat="47.6889" lon="6.0501">
        <ele>240.16</ele>
        <time>2022-03-18T08:15:29Z</time>
      </trkpt>
      <trkpt lat="47.68907" lon="6.05023">
        <ele>240.86</ele>
        <time>2022-03-18T08:15:36Z</time>
      </trkpt>
      <trkpt lat="47.68923" lon="6.05035">
        <ele>241.36</ele>
        <time>2022-03-18T08:15:43Z</time>
      </trkpt>
      <trkpt lat="47.68941" lon="6.0505">
        <ele>242.05</ele>
        <time>2022-03-18T08:15:51Z</time>
      </trkpt>
      <trkpt lat="47.68959" lon="6.05061">
        <ele>242.08</ele>
        <time>2022-03-18T08:15:59Z</time>
      </trkpt>
      <trkpt lat="47.68977" lon="6.05073">
        <ele>243.89</ele>
        <time>2022-03-18T08:16:09Z</time>
      </trkpt>
      <trkpt lat="47.68994" lon="6.05084">
        <ele>246.28</ele>
        <time>2022-03-18T08:16:19Z</time>
      </trkpt>
      <trkpt lat="47.69011" lon="6.05095">
        <ele>248.12</ele>
        <time>2022-03-18T08:16:29Z</time>
      </trkpt>
      <trkpt lat="47.69029" lon="6.05106">
        <ele>249.07</ele>
        <time>2022-03-18T08:16:40Z</time>
      </trkpt>
      <trkpt lat="47.69046" lon="6.05117">
        <ele>249.87</ele>
        <time>2022-03-18T08:16:51Z</time>
      </trkpt>
      <trkpt lat="47.69062" lon="6.05128">
        <ele>251.28</ele>
        <time>2022-03-18T08:17:02Z</time>
      </trkpt>
      <trkpt lat="47.69079" lon="6.05141">
        <ele>252.44</ele>
        <time>2022-03-18T08:17:12Z</time>
      </trkpt>
      <trkpt lat="47.69096" lon="6.05154">
        <ele>253.5</ele>
        <time>2022-03-18T08:17:23Z</time>
      </trkpt>
      <trkpt lat="47.69112" lon="6.05167">
        <ele>253.95</ele>
        <time>2022-03-18T08:17:32Z</time>
      </trkpt>
      <trkpt lat="47.69129" lon="6.0518">
        <ele>254.37</ele>
        <time>2022-03-18T08:17:40Z</time>
      </trkpt>
      <trkpt lat="47.69145" lon="6.05193">
        <ele>255.76</ele>
        <time>2022-03-18T08:17:48Z</time>
      </trkpt>
      <trkpt lat="47.69161" lon="6.0521">
        <ele>256.54</ele>
        <time>2022-03-18T08:17:57Z</time>
      </trkpt>
      <trkpt lat="47.69176" lon="6.05228">
        <ele>256.98</ele>
        <time>2022-03-18T08:18:05Z</time>
      </trkpt>
      <trkpt lat="47.69192" lon="6.05245">
        <ele>256.37</ele>
        <time>2022-03-18T08:18:13Z</time>
      </trkpt>
      <trkpt lat="47.69209" lon="6.05262">
        <ele>255.97</ele>
        <time>2022-03-18T08:18:21Z</time>
      </trkpt>
      <trkpt lat="47.69224" lon="6.05278">
        <ele>255.95</ele>
        <time>2022-03-18T08:18:28Z</time>
      </trkpt>
      <trkpt lat="47.69239" lon="6.05296">
        <ele>256.05</ele>
        <time>2022-03-18T08:18:35Z</time>
      </trkpt>
      <trkpt lat="47.69254" lon="6.05313">
        <ele>256.33</ele>
        <time>2022-03-18T08:18:42Z</time>
      </trkpt>
      <trkpt lat="47.6927" lon="6.05328">
        <ele>256.37</ele>
        <time>2022-03-18T08:18:49Z</time>
      </trkpt>
      <trkpt lat="47.69286" lon="6.05342">
        <ele>256.54</ele>
        <time>2022-03-18T08:18:56Z</time>
      </trkpt>
      <trkpt lat="47.69302" lon="6.05355">
        <ele>256.4</ele>
        <time>2022-03-18T08:19:03Z</time>
      </trkpt>
      <trkpt lat="47.6932" lon="6.05369">
        <ele>256.22</ele>
        <time>2022-03-18T08:19:11Z</time>
      </trkpt>
      <trkpt lat="47.69338" lon="6.05383">
        <ele>256</ele>
        <time>2022-03-18T08:19:19Z</time>
      </trkpt>
      <trkpt lat="47.69356" lon="6.05397">
        <ele>255.95</ele>
        <time>2022-03-18T08:19:27Z</time>
      </trkpt>
      <trkpt lat="47.69374" lon="6.05411">
        <ele>256.05</ele>
        <time>2022-03-18T08:19:35Z</time>
      </trkpt>
      <trkpt lat="47.6939" lon="6.05423">
        <ele>256.36</ele>
        <time>2022-03-18T08:19:42Z</time>
      </trkpt>
      <trkpt lat="47.69406" lon="6.05437">
        <ele>256.82</ele>
        <time>2022-03-18T08:19:49Z</time>
      </trkpt>
      <trkpt lat="47.69422" lon="6.0545">
        <ele>256.87</ele>
        <time>2022-03-18T08:19:56Z</time>
      </trkpt>
      <trkpt lat="47.69439" lon="6.05465">
        <ele>256.81</ele>
        <time>2022-03-18T08:20:04Z</time>
      </trkpt>
      <trkpt lat="47.69456" lon="6.0548">
        <ele>256.84</ele>
        <time>2022-03-18T08:20:12Z</time>
      </trkpt>
      <trkpt lat="47.69472" lon="6.05496">
        <ele>257.3</ele>
        <time>2022-03-18T08:20:20Z</time>
      </trkpt>
      <trkpt lat="47.69488" lon="6.05513">
        <ele>258.44</ele>
        <time>2022-03-18T08:20:28Z</time>
      </trkpt>
      <trkpt lat="47.69502" lon="6.0553">
        <ele>259.41</ele>
        <time>2022-03-18T08:20:36Z</time>
      </trkpt>
      <trkpt lat="47.69517" lon="6.05551">
        <ele>260.56</ele>
        <time>2022-03-18T08:20:45Z</time>
      </trkpt>
      <trkpt lat="47.6953" lon="6.0557">
        <ele>261.4</ele>
        <time>2022-03-18T08:20:54Z</time>
      </trkpt>
      <trkpt lat="47.69545" lon="6.05591">
        <ele>261.99</ele>
        <time>2022-03-18T08:21:03Z</time>
      </trkpt>
      <trkpt lat="47.69555" lon="6.05613">
        <ele>262.1</ele>
        <time>2022-03-18T08:21:11Z</time>
      </trkpt>
      <trkpt lat="47.6956" lon="6.05639">
        <ele>262.05</ele>
        <time>2022-03-18T08:21:18Z</time>
      </trkpt>
      <trkpt lat="47.69579" lon="6.05644">
        <ele>262.51</ele>
        <time>2022-03-18T08:21:25Z</time>
      </trkpt>
      <trkpt lat="47.69599" lon="6.05641">
        <ele>262.53</ele>
        <time>2022-03-18T08:21:31Z</time>
      </trkpt>
      <trkpt lat="47.69619" lon="6.05648">
        <ele>262.48</ele>
        <time>2022-03-18T08:21:37Z</time>
      </trkpt>
      <trkpt lat="47.69638" lon="6.05656">
        <ele>262.62</ele>
        <time>2022-03-18T08:21:43Z</time>
      </trkpt>
      <trkpt lat="47.69658" lon="6.05664">
        <ele>262.75</ele>
        <time>2022-03-18T08:21:49Z</time>
      </trkpt>
      <trkpt lat="47.69676" lon="6.05672">
        <ele>262.75</ele>
        <time>2022-03-18T08:21:54Z</time>
      </trkpt>
      <trkpt lat="47.69696" lon="6.05681">
        <ele>262.78</ele>
        <time>2022-03-18T08:21:59Z</time>
      </trkpt>
      <trkpt lat="47.69717" lon="6.0569">
        <ele>262.59</ele>
        <time>2022-03-18T08:22:04Z</time>
      </trkpt>
      <trkpt lat="47.69735" lon="6.05698">
        <ele>262.42</ele>
        <time>2022-03-18T08:22:08Z</time>
      </trkpt>
      <trkpt lat="47.69755" lon="6.05707">
        <ele>262.05</ele>
        <time>2022-03-18T08:22:12Z</time>
      </trkpt>
      <trkpt lat="47.69776" lon="6.05716">
        <ele>261.65</ele>
        <time>2022-03-18T08:22:16Z</time>
      </trkpt>
      <trkpt lat="47.69797" lon="6.05724">
        <ele>261.26</ele>
        <time>2022-03-18T08:22:20Z</time>
      </trkpt>
      <trkpt lat="47.69815" lon="6.0574">
        <ele>260.85</ele>
        <time>2022-03-18T08:22:24Z</time>
      </trkpt>
      <trkpt lat="47.69831" lon="6.05759">
        <ele>260.5</ele>
        <time>2022-03-18T08:22:28Z</time>
      </trkpt>
      <trkpt lat="47.69851" lon="6.05747">
        <ele>260.26</ele>
        <time>2022-03-18T08:22:33Z</time>
      </trkpt>
      <trkpt lat="47.69849" lon="6.05717">
        <ele>260.51</ele>
        <time>2022-03-18T08:22:37Z</time>
      </trkpt>
      <trkpt lat="47.69841" lon="6.0569">
        <ele>260.73</ele>
        <time>2022-03-18T08:22:41Z</time>
      </trkpt>
      <trkpt lat="47.69839" lon="6.05653">
        <ele>260.77</ele>
        <time>2022-03-18T08:22:45Z</time>
      </trkpt>
      <trkpt lat="47.69842" lon="6.05625">
        <ele>260.66</ele>
        <time>2022-03-18T08:22:47Z</time>
      </trkpt>
      <trkpt lat="47.69845" lon="6.05597">
        <ele>260.5</ele>
        <time>2022-03-18T08:22:49Z</time>
      </trkpt>
      <trkpt lat="47.69847" lon="6.0557">
        <ele>260.81</ele>
        <time>2022-03-18T08:22:51Z</time>
      </trkpt>
      <trkpt lat="47.6985" lon="6.05533">
        <ele>261.78</ele>
        <time>2022-03-18T08:22:54Z</time>
      </trkpt>
      <trkpt lat="47.69853" lon="6.05499">
        <ele>262.46</ele>
        <time>2022-03-18T08:22:57Z</time>
      </trkpt>
      <trkpt lat="47.69851" lon="6.05472">
        <ele>262.64</ele>
        <time>2022-03-18T08:23:00Z</time>
      </trkpt>
      <trkpt lat="47.69857" lon="6.05441">
        <ele>262.68</ele>
        <time>2022-03-18T08:23:04Z</time>
      </trkpt>
      <trkpt lat="47.69875" lon="6.05429">
        <ele>258.85</ele>
        <time>2022-03-18T08:23:12Z</time>
      </trkpt>
      <trkpt lat="47.69895" lon="6.05421">
        <ele>256.53</ele>
        <time>2022-03-18T08:23:20Z</time>
      </trkpt>
      <trkpt lat="47.69913" lon="6.05412">
        <ele>255.61</ele>
        <time>2022-03-18T08:23:27Z</time>
      </trkpt>
      <trkpt lat="47.6993" lon="6.05403">
        <ele>256.59</ele>
        <time>2022-03-18T08:23:34Z</time>
      </trkpt>
      <trkpt lat="47.69949" lon="6.05394">
        <ele>257.36</ele>
        <time>2022-03-18T08:23:42Z</time>
      </trkpt>
      <trkpt lat="47.69967" lon="6.05386">
        <ele>257.17</ele>
        <time>2022-03-18T08:23:49Z</time>
      </trkpt>
      <trkpt lat="47.69986" lon="6.05381">
        <ele>257.39</ele>
        <time>2022-03-18T08:23:54Z</time>
      </trkpt>
      <trkpt lat="47.70006" lon="6.05379">
        <ele>257.48</ele>
        <time>2022-03-18T08:23:59Z</time>
      </trkpt>
      <trkpt lat="47.70028" lon="6.05379">
        <ele>256.99</ele>
        <time>2022-03-18T08:24:04Z</time>
      </trkpt>
      <trkpt lat="47.70051" lon="6.0538">
        <ele>256.75</ele>
        <time>2022-03-18T08:24:08Z</time>
      </trkpt>
      <trkpt lat="47.70069" lon="6.0538">
        <ele>256.55</ele>
        <time>2022-03-18T08:24:11Z</time>
      </trkpt>
      <trkpt lat="47.70087" lon="6.05377">
        <ele>256.04</ele>
        <time>2022-03-18T08:24:14Z</time>
      </trkpt>
      <trkpt lat="47.70106" lon="6.05369">
        <ele>255.32</ele>
        <time>2022-03-18T08:24:17Z</time>
      </trkpt>
      <trkpt lat="47.70124" lon="6.05361">
        <ele>254.66</ele>
        <time>2022-03-18T08:24:20Z</time>
      </trkpt>
      <trkpt lat="47.70143" lon="6.05352">
        <ele>254.25</ele>
        <time>2022-03-18T08:24:23Z</time>
      </trkpt>
      <trkpt lat="47.7016" lon="6.05342">
        <ele>254.13</ele>
        <time>2022-03-18T08:24:26Z</time>
      </trkpt>
      <trkpt lat="47.70181" lon="6.05328">
        <ele>253.28</ele>
        <time>2022-03-18T08:24:30Z</time>
      </trkpt>
      <trkpt lat="47.70197" lon="6.05312">
        <ele>252.38</ele>
        <time>2022-03-18T08:24:34Z</time>
      </trkpt>
      <trkpt lat="47.70213" lon="6.05294">
        <ele>251.31</ele>
        <time>2022-03-18T08:24:39Z</time>
      </trkpt>
      <trkpt lat="47.70232" lon="6.05282">
        <ele>251.4</ele>
        <time>2022-03-18T08:24:47Z</time>
      </trkpt>
      <trkpt lat="47.70251" lon="6.05271">
        <ele>251.84</ele>
        <time>2022-03-18T08:24:53Z</time>
      </trkpt>
      <trkpt lat="47.7027" lon="6.05271">
        <ele>252.45</ele>
        <time>2022-03-18T08:25:03Z</time>
      </trkpt>
      <trkpt lat="47.70289" lon="6.0527">
        <ele>252.8</ele>
        <time>2022-03-18T08:25:11Z</time>
      </trkpt>
      <trkpt lat="47.70308" lon="6.0527">
        <ele>253.85</ele>
        <time>2022-03-18T08:25:24Z</time>
      </trkpt>
      <trkpt lat="47.70327" lon="6.05268">
        <ele>256.04</ele>
        <time>2022-03-18T08:25:33Z</time>
      </trkpt>
      <trkpt lat="47.70346" lon="6.05269">
        <ele>257.56</ele>
        <time>2022-03-18T08:25:44Z</time>
      </trkpt>
      <trkpt lat="47.70364" lon="6.05274">
        <ele>258.72</ele>
        <time>2022-03-18T08:25:55Z</time>
      </trkpt>
      <trkpt lat="47.70384" lon="6.0528">
        <ele>259.69</ele>
        <time>2022-03-18T08:26:06Z</time>
      </trkpt>
      <trkpt lat="47.70403" lon="6.05285">
        <ele>261.83</ele>
        <time>2022-03-18T08:26:16Z</time>
      </trkpt>
      <trkpt lat="47.70421" lon="6.05291">
        <ele>263.31</ele>
        <time>2022-03-18T08:26:26Z</time>
      </trkpt>
      <trkpt lat="47.70439" lon="6.05299">
        <ele>265.26</ele>
        <time>2022-03-18T08:26:37Z</time>
      </trkpt>
      <trkpt lat="47.70456" lon="6.05309">
        <ele>268.1</ele>
        <time>2022-03-18T08:26:47Z</time>
      </trkpt>
      <trkpt lat="47.70471" lon="6.05326">
        <ele>268.1</ele>
        <time>2022-03-18T08:26:56Z</time>
      </trkpt>
      <trkpt lat="47.70487" lon="6.05341">
        <ele>268.21</ele>
        <time>2022-03-18T08:27:05Z</time>
      </trkpt>
      <trkpt lat="47.70505" lon="6.05352">
        <ele>267.39</ele>
        <time>2022-03-18T08:27:12Z</time>
      </trkpt>
      <trkpt lat="47.70526" lon="6.05358">
        <ele>265.93</ele>
        <time>2022-03-18T08:27:19Z</time>
      </trkpt>
      <trkpt lat="47.70547" lon="6.05362">
        <ele>265.6</ele>
        <time>2022-03-18T08:27:26Z</time>
      </trkpt>
      <trkpt lat="47.70565" lon="6.05369">
        <ele>267.29</ele>
        <time>2022-03-18T08:27:33Z</time>
      </trkpt>
      <trkpt lat="47.70584" lon="6.05376">
        <ele>267.57</ele>
        <time>2022-03-18T08:27:40Z</time>
      </trkpt>
      <trkpt lat="47.70601" lon="6.05384">
        <ele>267.74</ele>
        <time>2022-03-18T08:27:46Z</time>
      </trkpt>
      <trkpt lat="47.7062" lon="6.05395">
        <ele>267.05</ele>
        <time>2022-03-18T08:27:53Z</time>
      </trkpt>
      <trkpt lat="47.70639" lon="6.05401">
        <ele>267.13</ele>
        <time>2022-03-18T08:28:01Z</time>
      </trkpt>
      <trkpt lat="47.70657" lon="6.05406">
        <ele>266.59</ele>
        <time>2022-03-18T08:28:07Z</time>
      </trkpt>
      <trkpt lat="47.70677" lon="6.0541">
        <ele>264.01</ele>
        <time>2022-03-18T08:28:13Z</time>
      </trkpt>
      <trkpt lat="47.70697" lon="6.05412">
        <ele>262.89</ele>
        <time>2022-03-18T08:28:19Z</time>
      </trkpt>
      <trkpt lat="47.70715" lon="6.0541">
        <ele>262.37</ele>
        <time>2022-03-18T08:28:24Z</time>
      </trkpt>
      <trkpt lat="47.70734" lon="6.05409">
        <ele>261.83</ele>
        <time>2022-03-18T08:28:29Z</time>
      </trkpt>
      <trkpt lat="47.70754" lon="6.05409">
        <ele>261.46</ele>
        <time>2022-03-18T08:28:35Z</time>
      </trkpt>
      <trkpt lat="47.70772" lon="6.05412">
        <ele>261.48</ele>
        <time>2022-03-18T08:28:42Z</time>
      </trkpt>
      <trkpt lat="47.7079" lon="6.05419">
        <ele>261.59</ele>
        <time>2022-03-18T08:28:49Z</time>
      </trkpt>
      <trkpt lat="47.70809" lon="6.05429">
        <ele>262.01</ele>
        <time>2022-03-18T08:28:57Z</time>
      </trkpt>
      <trkpt lat="47.70828" lon="6.05437">
        <ele>261.8</ele>
        <time>2022-03-18T08:29:05Z</time>
      </trkpt>
      <trkpt lat="47.70845" lon="6.05448">
        <ele>263.17</ele>
        <time>2022-03-18T08:29:14Z</time>
      </trkpt>
      <trkpt lat="47.70861" lon="6.05459">
        <ele>263.8</ele>
        <time>2022-03-18T08:29:26Z</time>
      </trkpt>
      <trkpt lat="47.7088" lon="6.05466">
        <ele>264.25</ele>
        <time>2022-03-18T08:29:37Z</time>
      </trkpt>
      <trkpt lat="47.70898" lon="6.05474">
        <ele>265.67</ele>
        <time>2022-03-18T08:29:48Z</time>
      </trkpt>
      <trkpt lat="47.70916" lon="6.05483">
        <ele>269.19</ele>
        <time>2022-03-18T08:29:59Z</time>
      </trkpt>
      <trkpt lat="47.70935" lon="6.0549">
        <ele>271</ele>
        <time>2022-03-18T08:30:11Z</time>
      </trkpt>
      <trkpt lat="47.70954" lon="6.05497">
        <ele>273.01</ele>
        <time>2022-03-18T08:30:23Z</time>
      </trkpt>
      <trkpt lat="47.70972" lon="6.05501">
        <ele>275.67</ele>
        <time>2022-03-18T08:30:35Z</time>
      </trkpt>
      <trkpt lat="47.7099" lon="6.05507">
        <ele>278.37</ele>
        <time>2022-03-18T08:30:48Z</time>
      </trkpt>
      <trkpt lat="47.71008" lon="6.05511">
        <ele>279.3</ele>
        <time>2022-03-18T08:30:59Z</time>
      </trkpt>
      <trkpt lat="47.71027" lon="6.05517">
        <ele>282.82</ele>
        <time>2022-03-18T08:31:11Z</time>
      </trkpt>
      <trkpt lat="47.71046" lon="6.05518">
        <ele>284.8</ele>
        <time>2022-03-18T08:31:22Z</time>
      </trkpt>
      <trkpt lat="47.71065" lon="6.05514">
        <ele>284.13</ele>
        <time>2022-03-18T08:31:32Z</time>
      </trkpt>
      <trkpt lat="47.71085" lon="6.05517">
        <ele>282.55</ele>
        <time>2022-03-18T08:31:42Z</time>
      </trkpt>
      <trkpt lat="47.71104" lon="6.05513">
        <ele>281.1</ele>
        <time>2022-03-18T08:31:49Z</time>
      </trkpt>
      <trkpt lat="47.71124" lon="6.05508">
        <ele>280.9</ele>
        <time>2022-03-18T08:31:55Z</time>
      </trkpt>
      <trkpt lat="47.71145" lon="6.05508">
        <ele>279.97</ele>
        <time>2022-03-18T08:32:02Z</time>
      </trkpt>
      <trkpt lat="47.71163" lon="6.05507">
        <ele>279.92</ele>
        <time>2022-03-18T08:32:07Z</time>
      </trkpt>
      <trkpt lat="47.71182" lon="6.05512">
        <ele>279.44</ele>
        <time>2022-03-18T08:32:13Z</time>
      </trkpt>
      <trkpt lat="47.71201" lon="6.05516">
        <ele>279.37</ele>
        <time>2022-03-18T08:32:18Z</time>
      </trkpt>
      <trkpt lat="47.71221" lon="6.05522">
        <ele>279.11</ele>
        <time>2022-03-18T08:32:23Z</time>
      </trkpt>
      <trkpt lat="47.71239" lon="6.05534">
        <ele>278.37</ele>
        <time>2022-03-18T08:32:27Z</time>
      </trkpt>
      <trkpt lat="47.71259" lon="6.05547">
        <ele>277.56</ele>
        <time>2022-03-18T08:32:32Z</time>
      </trkpt>
      <trkpt lat="47.71278" lon="6.05554">
        <ele>276.54</ele>
        <time>2022-03-18T08:32:35Z</time>
      </trkpt>
      <trkpt lat="47.71297" lon="6.05561">
        <ele>276.26</ele>
        <time>2022-03-18T08:32:38Z</time>
      </trkpt>
      <trkpt lat="47.71313" lon="6.05575">
        <ele>276.88</ele>
        <time>2022-03-18T08:32:42Z</time>
      </trkpt>
      <trkpt lat="47.7133" lon="6.05587">
        <ele>276.67</ele>
        <time>2022-03-18T08:32:47Z</time>
      </trkpt>
      <trkpt lat="47.71348" lon="6.056">
        <ele>275.96</ele>
        <time>2022-03-18T08:32:52Z</time>
      </trkpt>
      <trkpt lat="47.71363" lon="6.0562">
        <ele>274.96</ele>
        <time>2022-03-18T08:32:57Z</time>
      </trkpt>
      <trkpt lat="47.7138" lon="6.05633">
        <ele>273.61</ele>
        <time>2022-03-18T08:33:02Z</time>
      </trkpt>
      <trkpt lat="47.714" lon="6.05644">
        <ele>273.44</ele>
        <time>2022-03-18T08:33:07Z</time>
      </trkpt>
      <trkpt lat="47.71419" lon="6.05656">
        <ele>272.29</ele>
        <time>2022-03-18T08:33:12Z</time>
      </trkpt>
      <trkpt lat="47.71437" lon="6.05672">
        <ele>271.33</ele>
        <time>2022-03-18T08:33:18Z</time>
      </trkpt>
      <trkpt lat="47.71453" lon="6.05691">
        <ele>269.64</ele>
        <time>2022-03-18T08:33:24Z</time>
      </trkpt>
      <trkpt lat="47.7147" lon="6.05703">
        <ele>268.21</ele>
        <time>2022-03-18T08:33:29Z</time>
      </trkpt>
      <trkpt lat="47.71487" lon="6.05716">
        <ele>267.43</ele>
        <time>2022-03-18T08:33:34Z</time>
      </trkpt>
      <trkpt lat="47.71503" lon="6.05727">
        <ele>266.54</ele>
        <time>2022-03-18T08:33:39Z</time>
      </trkpt>
      <trkpt lat="47.71521" lon="6.05733">
        <ele>265.71</ele>
        <time>2022-03-18T08:33:44Z</time>
      </trkpt>
      <trkpt lat="47.71542" lon="6.05737">
        <ele>265.05</ele>
        <time>2022-03-18T08:33:50Z</time>
      </trkpt>
      <trkpt lat="47.71562" lon="6.0574">
        <ele>262.36</ele>
        <time>2022-03-18T08:33:56Z</time>
      </trkpt>
      <trkpt lat="47.71581" lon="6.05737">
        <ele>260.78</ele>
        <time>2022-03-18T08:34:02Z</time>
      </trkpt>
      <trkpt lat="47.71599" lon="6.05736">
        <ele>259.2</ele>
        <time>2022-03-18T08:34:09Z</time>
      </trkpt>
      <trkpt lat="47.71617" lon="6.0574">
        <ele>259.78</ele>
        <time>2022-03-18T08:34:17Z</time>
      </trkpt>
      <trkpt lat="47.71636" lon="6.0575">
        <ele>259.74</ele>
        <time>2022-03-18T08:34:24Z</time>
      </trkpt>
      <trkpt lat="47.71655" lon="6.05747">
        <ele>259.82</ele>
        <time>2022-03-18T08:34:30Z</time>
      </trkpt>
      <trkpt lat="47.71675" lon="6.05745">
        <ele>259.31</ele>
        <time>2022-03-18T08:34:39Z</time>
      </trkpt>
      <trkpt lat="47.71693" lon="6.0575">
        <ele>259.15</ele>
        <time>2022-03-18T08:34:45Z</time>
      </trkpt>
      <trkpt lat="47.71712" lon="6.05754">
        <ele>261.59</ele>
        <time>2022-03-18T08:34:53Z</time>
      </trkpt>
      <trkpt lat="47.7173" lon="6.05765">
        <ele>263.09</ele>
        <time>2022-03-18T08:34:59Z</time>
      </trkpt>
      <trkpt lat="47.71749" lon="6.05773">
        <ele>262.86</ele>
        <time>2022-03-18T08:35:04Z</time>
      </trkpt>
      <trkpt lat="47.71768" lon="6.05785">
        <ele>261.56</ele>
        <time>2022-03-18T08:35:10Z</time>
      </trkpt>
      <trkpt lat="47.71786" lon="6.05799">
        <ele>262.09</ele>
        <time>2022-03-18T08:35:17Z</time>
      </trkpt>
      <trkpt lat="47.71804" lon="6.05812">
        <ele>261.96</ele>
        <time>2022-03-18T08:35:22Z</time>
      </trkpt>
      <trkpt lat="47.71823" lon="6.05828">
        <ele>263.36</ele>
        <time>2022-03-18T08:35:30Z</time>
      </trkpt>
      <trkpt lat="47.71841" lon="6.05837">
        <ele>264.66</ele>
        <time>2022-03-18T08:35:36Z</time>
      </trkpt>
      <trkpt lat="47.71854" lon="6.05859">
        <ele>266.66</ele>
        <time>2022-03-18T08:35:44Z</time>
      </trkpt>
      <trkpt lat="47.7187" lon="6.05876">
        <ele>268.39</ele>
        <time>2022-03-18T08:35:51Z</time>
      </trkpt>
      <trkpt lat="47.71885" lon="6.05892">
        <ele>270.62</ele>
        <time>2022-03-18T08:35:58Z</time>
      </trkpt>
      <trkpt lat="47.71902" lon="6.05907">
        <ele>271.55</ele>
        <time>2022-03-18T08:36:06Z</time>
      </trkpt>
      <trkpt lat="47.7192" lon="6.05918">
        <ele>272.81</ele>
        <time>2022-03-18T08:36:14Z</time>
      </trkpt>
      <trkpt lat="47.71939" lon="6.05929">
        <ele>270.81</ele>
        <time>2022-03-18T08:36:20Z</time>
      </trkpt>
      <trkpt lat="47.7196" lon="6.0593">
        <ele>268.42</ele>
        <time>2022-03-18T08:36:26Z</time>
      </trkpt>
      <trkpt lat="47.7198" lon="6.05939">
        <ele>267.98</ele>
        <time>2022-03-18T08:36:34Z</time>
      </trkpt>
      <trkpt lat="47.71998" lon="6.05955">
        <ele>266.43</ele>
        <time>2022-03-18T08:36:42Z</time>
      </trkpt>
      <trkpt lat="47.72018" lon="6.05972">
        <ele>266.33</ele>
        <time>2022-03-18T08:36:47Z</time>
      </trkpt>
      <trkpt lat="47.72038" lon="6.05984">
        <ele>266.53</ele>
        <time>2022-03-18T08:36:51Z</time>
      </trkpt>
      <trkpt lat="47.72058" lon="6.05994">
        <ele>266.99</ele>
        <time>2022-03-18T08:36:55Z</time>
      </trkpt>
      <trkpt lat="47.72076" lon="6.06012">
        <ele>266.91</ele>
        <time>2022-03-18T08:36:59Z</time>
      </trkpt>
      <trkpt lat="47.72092" lon="6.06028">
        <ele>266.46</ele>
        <time>2022-03-18T08:37:03Z</time>
      </trkpt>
      <trkpt lat="47.7211" lon="6.06047">
        <ele>266.04</ele>
        <time>2022-03-18T08:37:07Z</time>
      </trkpt>
      <trkpt lat="47.72125" lon="6.06062">
        <ele>266.34</ele>
        <time>2022-03-18T08:37:10Z</time>
      </trkpt>
      <trkpt lat="47.72139" lon="6.06087">
        <ele>267.39</ele>
        <time>2022-03-18T08:37:14Z</time>
      </trkpt>
      <trkpt lat="47.72148" lon="6.0611">
        <ele>268.24</ele>
        <time>2022-03-18T08:37:17Z</time>
      </trkpt>
      <trkpt lat="47.72164" lon="6.0613">
        <ele>267.95</ele>
        <time>2022-03-18T08:37:21Z</time>
      </trkpt>
      <trkpt lat="47.7218" lon="6.06143">
        <ele>265.26</ele>
        <time>2022-03-18T08:37:26Z</time>
      </trkpt>
      <trkpt lat="47.72198" lon="6.06148">
        <ele>262.59</ele>
        <time>2022-03-18T08:37:34Z</time>
      </trkpt>
      <trkpt lat="47.72217" lon="6.06155">
        <ele>260.52</ele>
        <time>2022-03-18T08:37:42Z</time>
      </trkpt>
      <trkpt lat="47.72238" lon="6.06154">
        <ele>260</ele>
        <time>2022-03-18T08:37:52Z</time>
      </trkpt>
      <trkpt lat="47.72263" lon="6.06156">
        <ele>258.05</ele>
        <time>2022-03-18T08:38:06Z</time>
      </trkpt>
      <trkpt lat="47.7228" lon="6.06142">
        <ele>257.53</ele>
        <time>2022-03-18T08:38:15Z</time>
      </trkpt>
      <trkpt lat="47.72299" lon="6.06143">
        <ele>255.25</ele>
        <time>2022-03-18T08:38:23Z</time>
      </trkpt>
      <trkpt lat="47.72319" lon="6.06145">
        <ele>252.93</ele>
        <time>2022-03-18T08:38:31Z</time>
      </trkpt>
      <trkpt lat="47.7234" lon="6.0615">
        <ele>253.61</ele>
        <time>2022-03-18T08:38:39Z</time>
      </trkpt>
      <trkpt lat="47.7236" lon="6.06154">
        <ele>253.48</ele>
        <time>2022-03-18T08:38:46Z</time>
      </trkpt>
      <trkpt lat="47.72379" lon="6.06158">
        <ele>252.41</ele>
        <time>2022-03-18T08:38:53Z</time>
      </trkpt>
      <trkpt lat="47.72398" lon="6.06163">
        <ele>251.45</ele>
        <time>2022-03-18T08:39:00Z</time>
      </trkpt>
      <trkpt lat="47.72415" lon="6.06174">
        <ele>252.4</ele>
        <time>2022-03-18T08:39:07Z</time>
      </trkpt>
      <trkpt lat="47.72432" lon="6.06191">
        <ele>252.48</ele>
        <time>2022-03-18T08:39:15Z</time>
      </trkpt>
      <trkpt lat="47.7245" lon="6.062">
        <ele>254.27</ele>
        <time>2022-03-18T08:39:22Z</time>
      </trkpt>
      <trkpt lat="47.72468" lon="6.06215">
        <ele>254.97</ele>
        <time>2022-03-18T08:39:28Z</time>
      </trkpt>
      <trkpt lat="47.72486" lon="6.06224">
        <ele>255.6</ele>
        <time>2022-03-18T08:39:35Z</time>
      </trkpt>
      <trkpt lat="47.72505" lon="6.06235">
        <ele>256.54</ele>
        <time>2022-03-18T08:39:42Z</time>
      </trkpt>
      <trkpt lat="47.72523" lon="6.06246">
        <ele>256.31</ele>
        <time>2022-03-18T08:39:49Z</time>
      </trkpt>
      <trkpt lat="47.7254" lon="6.06259">
        <ele>256.88</ele>
        <time>2022-03-18T08:39:56Z</time>
      </trkpt>
      <trkpt lat="47.72558" lon="6.06271">
        <ele>257.79</ele>
        <time>2022-03-18T08:40:03Z</time>
      </trkpt>
      <trkpt lat="47.72575" lon="6.06286">
        <ele>258.39</ele>
        <time>2022-03-18T08:40:10Z</time>
      </trkpt>
      <trkpt lat="47.72591" lon="6.06301">
        <ele>258.54</ele>
        <time>2022-03-18T08:40:16Z</time>
      </trkpt>
      <trkpt lat="47.72608" lon="6.06318">
        <ele>258.39</ele>
        <time>2022-03-18T08:40:21Z</time>
      </trkpt>
      <trkpt lat="47.72623" lon="6.06335">
        <ele>257.89</ele>
        <time>2022-03-18T08:40:25Z</time>
      </trkpt>
      <trkpt lat="47.7264" lon="6.06356">
        <ele>256.92</ele>
        <time>2022-03-18T08:40:29Z</time>
      </trkpt>
      <trkpt lat="47.72658" lon="6.06373">
        <ele>256.19</ele>
        <time>2022-03-18T08:40:33Z</time>
      </trkpt>
      <trkpt lat="47.72676" lon="6.06383">
        <ele>255.69</ele>
        <time>2022-03-18T08:40:36Z</time>
      </trkpt>
      <trkpt lat="47.72693" lon="6.06393">
        <ele>255.26</ele>
        <time>2022-03-18T08:40:39Z</time>
      </trkpt>
      <trkpt lat="47.72715" lon="6.06402">
        <ele>254.35</ele>
        <time>2022-03-18T08:40:43Z</time>
      </trkpt>
      <trkpt lat="47.72736" lon="6.06403">
        <ele>252.73</ele>
        <time>2022-03-18T08:40:48Z</time>
      </trkpt>
      <trkpt lat="47.72757" lon="6.06408">
        <ele>252.34</ele>
        <time>2022-03-18T08:40:54Z</time>
      </trkpt>
      <trkpt lat="47.72778" lon="6.06402">
        <ele>251.15</ele>
        <time>2022-03-18T08:40:57Z</time>
      </trkpt>
      <trkpt lat="47.72796" lon="6.06394">
        <ele>249.86</ele>
        <time>2022-03-18T08:41:00Z</time>
      </trkpt>
      <trkpt lat="47.72812" lon="6.06375">
        <ele>250.15</ele>
        <time>2022-03-18T08:41:05Z</time>
      </trkpt>
      <trkpt lat="47.72826" lon="6.06356">
        <ele>248.85</ele>
        <time>2022-03-18T08:41:12Z</time>
      </trkpt>
      <trkpt lat="47.72841" lon="6.06334">
        <ele>248.78</ele>
        <time>2022-03-18T08:41:19Z</time>
      </trkpt>
      <trkpt lat="47.72853" lon="6.06312">
        <ele>248.38</ele>
        <time>2022-03-18T08:41:25Z</time>
      </trkpt>
      <trkpt lat="47.72867" lon="6.06292">
        <ele>247.89</ele>
        <time>2022-03-18T08:41:33Z</time>
      </trkpt>
      <trkpt lat="47.72879" lon="6.06272">
        <ele>247.96</ele>
        <time>2022-03-18T08:41:41Z</time>
      </trkpt>
      <trkpt lat="47.72889" lon="6.06249">
        <ele>248.01</ele>
        <time>2022-03-18T08:41:47Z</time>
      </trkpt>
      <trkpt lat="47.729" lon="6.06226">
        <ele>246.85</ele>
        <time>2022-03-18T08:41:53Z</time>
      </trkpt>
      <trkpt lat="47.72914" lon="6.06203">
        <ele>247.24</ele>
        <time>2022-03-18T08:41:59Z</time>
      </trkpt>
      <trkpt lat="47.72929" lon="6.06186">
        <ele>246.3</ele>
        <time>2022-03-18T08:42:05Z</time>
      </trkpt>
      <trkpt lat="47.72946" lon="6.06174">
        <ele>246.11</ele>
        <time>2022-03-18T08:42:11Z</time>
      </trkpt>
      <trkpt lat="47.72966" lon="6.06168">
        <ele>244.91</ele>
        <time>2022-03-18T08:42:18Z</time>
      </trkpt>
      <trkpt lat="47.72985" lon="6.06163">
        <ele>244.38</ele>
        <time>2022-03-18T08:42:26Z</time>
      </trkpt>
      <trkpt lat="47.73003" lon="6.0616">
        <ele>244.88</ele>
        <time>2022-03-18T08:42:36Z</time>
      </trkpt>
      <trkpt lat="47.73022" lon="6.06159">
        <ele>245.28</ele>
        <time>2022-03-18T08:42:47Z</time>
      </trkpt>
      <trkpt lat="47.73041" lon="6.06157">
        <ele>247.33</ele>
        <time>2022-03-18T08:42:58Z</time>
      </trkpt>
      <trkpt lat="47.73059" lon="6.06159">
        <ele>247.8</ele>
        <time>2022-03-18T08:43:09Z</time>
      </trkpt>
      <trkpt lat="47.73077" lon="6.06163">
        <ele>248.43</ele>
        <time>2022-03-18T08:43:20Z</time>
      </trkpt>
      <trkpt lat="47.73096" lon="6.06169">
        <ele>248.46</ele>
        <time>2022-03-18T08:43:32Z</time>
      </trkpt>
      <trkpt lat="47.73114" lon="6.06178">
        <ele>249.93</ele>
        <time>2022-03-18T08:43:42Z</time>
      </trkpt>
      <trkpt lat="47.7313" lon="6.06189">
        <ele>252.28</ele>
        <time>2022-03-18T08:43:52Z</time>
      </trkpt>
      <trkpt lat="47.73148" lon="6.06197">
        <ele>253.25</ele>
        <time>2022-03-18T08:43:59Z</time>
      </trkpt>
      <trkpt lat="47.73164" lon="6.06214">
        <ele>254.57</ele>
        <time>2022-03-18T08:44:05Z</time>
      </trkpt>
      <trkpt lat="47.7318" lon="6.06228">
        <ele>255.89</ele>
        <time>2022-03-18T08:44:10Z</time>
      </trkpt>
      <trkpt lat="47.73196" lon="6.06242">
        <ele>257.56</ele>
        <time>2022-03-18T08:44:15Z</time>
      </trkpt>
      <trkpt lat="47.73213" lon="6.06254">
        <ele>257.95</ele>
        <time>2022-03-18T08:44:20Z</time>
      </trkpt>
      <trkpt lat="47.73234" lon="6.06257">
        <ele>256.51</ele>
        <time>2022-03-18T08:44:26Z</time>
      </trkpt>
      <trkpt lat="47.73253" lon="6.06259">
        <ele>256.04</ele>
        <time>2022-03-18T08:44:31Z</time>
      </trkpt>
      <trkpt lat="47.73272" lon="6.06272">
        <ele>256.7</ele>
        <time>2022-03-18T08:44:38Z</time>
      </trkpt>
      <trkpt lat="47.73288" lon="6.06287">
        <ele>257.73</ele>
        <time>2022-03-18T08:44:45Z</time>
      </trkpt>
      <trkpt lat="47.73307" lon="6.06301">
        <ele>258.29</ele>
        <time>2022-03-18T08:44:51Z</time>
      </trkpt>
      <trkpt lat="47.73324" lon="6.06313">
        <ele>258.46</ele>
        <time>2022-03-18T08:44:56Z</time>
      </trkpt>
      <trkpt lat="47.73343" lon="6.06325">
        <ele>258.01</ele>
        <time>2022-03-18T08:45:01Z</time>
      </trkpt>
      <trkpt lat="47.7336" lon="6.06335">
        <ele>257.16</ele>
        <time>2022-03-18T08:45:05Z</time>
      </trkpt>
      <trkpt lat="47.73381" lon="6.06341">
        <ele>256.56</ele>
        <time>2022-03-18T08:45:09Z</time>
      </trkpt>
      <trkpt lat="47.73402" lon="6.06348">
        <ele>256.12</ele>
        <time>2022-03-18T08:45:13Z</time>
      </trkpt>
      <trkpt lat="47.73422" lon="6.06358">
        <ele>255.22</ele>
        <time>2022-03-18T08:45:17Z</time>
      </trkpt>
      <trkpt lat="47.73442" lon="6.06365">
        <ele>254.58</ele>
        <time>2022-03-18T08:45:21Z</time>
      </trkpt>
      <trkpt lat="47.7346" lon="6.0637">
        <ele>254.18</ele>
        <time>2022-03-18T08:45:25Z</time>
      </trkpt>
      <trkpt lat="47.73451" lon="6.06394">
        <ele>259.53</ele>
        <time>2022-03-18T08:46:26Z</time>
      </trkpt>
      <trkpt lat="47.73434" lon="6.06412">
        <ele>262.04</ele>
        <time>2022-03-18T08:46:32Z</time>
      </trkpt>
      <trkpt lat="47.73415" lon="6.06426">
        <ele>262.7</ele>
        <time>2022-03-18T08:46:38Z</time>
      </trkpt>
      <trkpt lat="47.734" lon="6.06442">
        <ele>263.59</ele>
        <time>2022-03-18T08:46:42Z</time>
      </trkpt>
      <trkpt lat="47.73385" lon="6.06462">
        <ele>263.7</ele>
        <time>2022-03-18T08:46:46Z</time>
      </trkpt>
      <trkpt lat="47.73369" lon="6.06481">
        <ele>264.52</ele>
        <time>2022-03-18T08:46:50Z</time>
      </trkpt>
      <trkpt lat="47.73353" lon="6.06495">
        <ele>265.14</ele>
        <time>2022-03-18T08:46:54Z</time>
      </trkpt>
      <trkpt lat="47.73338" lon="6.0652">
        <ele>264.21</ele>
        <time>2022-03-18T08:46:58Z</time>
      </trkpt>
      <trkpt lat="47.7332" lon="6.06535">
        <ele>262.24</ele>
        <time>2022-03-18T08:47:02Z</time>
      </trkpt>
      <trkpt lat="47.73302" lon="6.0654">
        <ele>261.26</ele>
        <time>2022-03-18T08:47:06Z</time>
      </trkpt>
      <trkpt lat="47.73281" lon="6.0655">
        <ele>260.65</ele>
        <time>2022-03-18T08:47:11Z</time>
      </trkpt>
      <trkpt lat="47.7326" lon="6.06561">
        <ele>260.23</ele>
        <time>2022-03-18T08:47:16Z</time>
      </trkpt>
      <trkpt lat="47.73239" lon="6.06573">
        <ele>259.63</ele>
        <time>2022-03-18T08:47:21Z</time>
      </trkpt>
      <trkpt lat="47.73223" lon="6.06584">
        <ele>258.76</ele>
        <time>2022-03-18T08:47:25Z</time>
      </trkpt>
      <trkpt lat="47.73203" lon="6.06599">
        <ele>257.99</ele>
        <time>2022-03-18T08:47:30Z</time>
      </trkpt>
      <trkpt lat="47.73189" lon="6.06618">
        <ele>257.1</ele>
        <time>2022-03-18T08:47:35Z</time>
      </trkpt>
      <trkpt lat="47.7318" lon="6.06645">
        <ele>256.97</ele>
        <time>2022-03-18T08:47:42Z</time>
      </trkpt>
      <trkpt lat="47.73172" lon="6.06668">
        <ele>257.77</ele>
        <time>2022-03-18T08:47:48Z</time>
      </trkpt>
      <trkpt lat="47.73163" lon="6.06692">
        <ele>258.79</ele>
        <time>2022-03-18T08:47:54Z</time>
      </trkpt>
      <trkpt lat="47.73154" lon="6.06718">
        <ele>259.72</ele>
        <time>2022-03-18T08:48:01Z</time>
      </trkpt>
      <trkpt lat="47.73147" lon="6.06747">
        <ele>261.89</ele>
        <time>2022-03-18T08:48:08Z</time>
      </trkpt>
      <trkpt lat="47.73141" lon="6.06777">
        <ele>263.09</ele>
        <time>2022-03-18T08:48:14Z</time>
      </trkpt>
      <trkpt lat="47.73137" lon="6.06805">
        <ele>264.39</ele>
        <time>2022-03-18T08:48:20Z</time>
      </trkpt>
      <trkpt lat="47.73131" lon="6.06835">
        <ele>265.04</ele>
        <time>2022-03-18T08:48:26Z</time>
      </trkpt>
      <trkpt lat="47.73128" lon="6.06861">
        <ele>266.06</ele>
        <time>2022-03-18T08:48:33Z</time>
      </trkpt>
      <trkpt lat="47.73121" lon="6.06887">
        <ele>266.05</ele>
        <time>2022-03-18T08:48:38Z</time>
      </trkpt>
      <trkpt lat="47.7311" lon="6.06912">
        <ele>266.53</ele>
        <time>2022-03-18T08:48:43Z</time>
      </trkpt>
      <trkpt lat="47.73101" lon="6.06935">
        <ele>267.55</ele>
        <time>2022-03-18T08:48:47Z</time>
      </trkpt>
      <trkpt lat="47.73092" lon="6.06959">
        <ele>267.24</ele>
        <time>2022-03-18T08:48:52Z</time>
      </trkpt>
      <trkpt lat="47.73085" lon="6.06987">
        <ele>265.24</ele>
        <time>2022-03-18T08:48:59Z</time>
      </trkpt>
      <trkpt lat="47.73078" lon="6.07015">
        <ele>264.27</ele>
        <time>2022-03-18T08:49:07Z</time>
      </trkpt>
      <trkpt lat="47.73074" lon="6.07044">
        <ele>262.45</ele>
        <time>2022-03-18T08:49:15Z</time>
      </trkpt>
      <trkpt lat="47.73071" lon="6.07072">
        <ele>260.4</ele>
        <time>2022-03-18T08:49:22Z</time>
      </trkpt>
      <trkpt lat="47.73067" lon="6.071">
        <ele>258.7</ele>
        <time>2022-03-18T08:49:29Z</time>
      </trkpt>
      <trkpt lat="47.73062" lon="6.07129">
        <ele>257.74</ele>
        <time>2022-03-18T08:49:36Z</time>
      </trkpt>
      <trkpt lat="47.73057" lon="6.07155">
        <ele>256.91</ele>
        <time>2022-03-18T08:49:42Z</time>
      </trkpt>
      <trkpt lat="47.73051" lon="6.07184">
        <ele>256.68</ele>
        <time>2022-03-18T08:49:48Z</time>
      </trkpt>
      <trkpt lat="47.73046" lon="6.07213">
        <ele>258.75</ele>
        <time>2022-03-18T08:49:55Z</time>
      </trkpt>
      <trkpt lat="47.73034" lon="6.07237">
        <ele>263.65</ele>
        <time>2022-03-18T08:50:05Z</time>
      </trkpt>
      <trkpt lat="47.73022" lon="6.07257">
        <ele>266.27</ele>
        <time>2022-03-18T08:50:15Z</time>
      </trkpt>
      <trkpt lat="47.73013" lon="6.07281">
        <ele>266.78</ele>
        <time>2022-03-18T08:50:20Z</time>
      </trkpt>
      <trkpt lat="47.73023" lon="6.07313">
        <ele>265.21</ele>
        <time>2022-03-18T08:50:30Z</time>
      </trkpt>
      <trkpt lat="47.73038" lon="6.07329">
        <ele>266.6</ele>
        <time>2022-03-18T08:50:37Z</time>
      </trkpt>
      <trkpt lat="47.73051" lon="6.07353">
        <ele>265.54</ele>
        <time>2022-03-18T08:50:45Z</time>
      </trkpt>
      <trkpt lat="47.73069" lon="6.07381">
        <ele>264.55</ele>
        <time>2022-03-18T08:51:03Z</time>
      </trkpt>
      <trkpt lat="47.731" lon="6.07418">
        <ele>266.1</ele>
        <time>2022-03-18T08:51:24Z</time>
      </trkpt>
      <trkpt lat="47.73094" lon="6.07466">
        <ele>275.5</ele>
        <time>2022-03-18T08:51:55Z</time>
      </trkpt>
      <trkpt lat="47.73101" lon="6.07493">
        <ele>280.72</ele>
        <time>2022-03-18T08:52:00Z</time>
      </trkpt>
      <trkpt lat="47.73111" lon="6.07519">
        <ele>277.94</ele>
        <time>2022-03-18T08:52:06Z</time>
      </trkpt>
      <trkpt lat="47.73124" lon="6.07543">
        <ele>277.31</ele>
        <time>2022-03-18T08:52:14Z</time>
      </trkpt>
      <trkpt lat="47.73138" lon="6.07562">
        <ele>278.53</ele>
        <time>2022-03-18T08:52:22Z</time>
      </trkpt>
      <trkpt lat="47.73154" lon="6.07582">
        <ele>280.44</ele>
        <time>2022-03-18T08:52:31Z</time>
      </trkpt>
      <trkpt lat="47.73168" lon="6.07602">
        <ele>280.53</ele>
        <time>2022-03-18T08:52:42Z</time>
      </trkpt>
      <trkpt lat="47.73185" lon="6.07621">
        <ele>282</ele>
        <time>2022-03-18T08:52:52Z</time>
      </trkpt>
      <trkpt lat="47.73202" lon="6.07632">
        <ele>284.97</ele>
        <time>2022-03-18T08:53:02Z</time>
      </trkpt>
      <trkpt lat="47.73216" lon="6.0765">
        <ele>285.76</ele>
        <time>2022-03-18T08:53:09Z</time>
      </trkpt>
      <trkpt lat="47.73232" lon="6.07666">
        <ele>284.94</ele>
        <time>2022-03-18T08:53:16Z</time>
      </trkpt>
      <trkpt lat="47.7325" lon="6.07676">
        <ele>282.75</ele>
        <time>2022-03-18T08:53:22Z</time>
      </trkpt>
      <trkpt lat="47.73269" lon="6.07674">
        <ele>282.15</ele>
        <time>2022-03-18T08:53:27Z</time>
      </trkpt>
      <trkpt lat="47.73284" lon="6.07657">
        <ele>282.1</ele>
        <time>2022-03-18T08:53:32Z</time>
      </trkpt>
      <trkpt lat="47.73295" lon="6.07633">
        <ele>281.56</ele>
        <time>2022-03-18T08:53:36Z</time>
      </trkpt>
      <trkpt lat="47.73305" lon="6.07602">
        <ele>281.87</ele>
        <time>2022-03-18T08:53:40Z</time>
      </trkpt>
      <trkpt lat="47.73313" lon="6.07569">
        <ele>283.13</ele>
        <time>2022-03-18T08:53:44Z</time>
      </trkpt>
      <trkpt lat="47.73319" lon="6.07535">
        <ele>283.82</ele>
        <time>2022-03-18T08:53:48Z</time>
      </trkpt>
      <trkpt lat="47.7332" lon="6.07499">
        <ele>284.09</ele>
        <time>2022-03-18T08:53:52Z</time>
      </trkpt>
      <trkpt lat="47.73322" lon="6.07468">
        <ele>283.01</ele>
        <time>2022-03-18T08:53:55Z</time>
      </trkpt>
      <trkpt lat="47.73326" lon="6.07431">
        <ele>281.05</ele>
        <time>2022-03-18T08:53:58Z</time>
      </trkpt>
      <trkpt lat="47.73329" lon="6.07398">
        <ele>279.8</ele>
        <time>2022-03-18T08:54:01Z</time>
      </trkpt>
      <trkpt lat="47.73331" lon="6.07369">
        <ele>279.4</ele>
        <time>2022-03-18T08:54:05Z</time>
      </trkpt>
      <trkpt lat="47.73336" lon="6.0734">
        <ele>281.18</ele>
        <time>2022-03-18T08:54:10Z</time>
      </trkpt>
      <trkpt lat="47.7334" lon="6.07306">
        <ele>281.2</ele>
        <time>2022-03-18T08:54:15Z</time>
      </trkpt>
      <trkpt lat="47.73341" lon="6.07278">
        <ele>280.58</ele>
        <time>2022-03-18T08:54:18Z</time>
      </trkpt>
      <trkpt lat="47.73343" lon="6.07247">
        <ele>279.38</ele>
        <time>2022-03-18T08:54:21Z</time>
      </trkpt>
      <trkpt lat="47.73346" lon="6.07216">
        <ele>277.72</ele>
        <time>2022-03-18T08:54:24Z</time>
      </trkpt>
      <trkpt lat="47.7335" lon="6.07183">
        <ele>276.2</ele>
        <time>2022-03-18T08:54:27Z</time>
      </trkpt>
      <trkpt lat="47.73355" lon="6.07153">
        <ele>274.04</ele>
        <time>2022-03-18T08:54:30Z</time>
      </trkpt>
      <trkpt lat="47.73362" lon="6.07124">
        <ele>272.48</ele>
        <time>2022-03-18T08:54:33Z</time>
      </trkpt>
      <trkpt lat="47.73369" lon="6.07095">
        <ele>271.37</ele>
        <time>2022-03-18T08:54:36Z</time>
      </trkpt>
      <trkpt lat="47.73369" lon="6.07067">
        <ele>269.83</ele>
        <time>2022-03-18T08:54:39Z</time>
      </trkpt>
      <trkpt lat="47.73367" lon="6.07032">
        <ele>268.47</ele>
        <time>2022-03-18T08:54:43Z</time>
      </trkpt>
      <trkpt lat="47.73366" lon="6.07004">
        <ele>267.62</ele>
        <time>2022-03-18T08:54:47Z</time>
      </trkpt>
      <trkpt lat="47.73369" lon="6.06975">
        <ele>267.62</ele>
        <time>2022-03-18T08:54:52Z</time>
      </trkpt>
      <trkpt lat="47.73376" lon="6.06945">
        <ele>268.52</ele>
        <time>2022-03-18T08:54:57Z</time>
      </trkpt>
      <trkpt lat="47.73385" lon="6.06915">
        <ele>268.58</ele>
        <time>2022-03-18T08:55:01Z</time>
      </trkpt>
      <trkpt lat="47.73395" lon="6.06891">
        <ele>267.87</ele>
        <time>2022-03-18T08:55:05Z</time>
      </trkpt>
      <trkpt lat="47.73408" lon="6.06866">
        <ele>266.87</ele>
        <time>2022-03-18T08:55:10Z</time>
      </trkpt>
      <trkpt lat="47.7342" lon="6.06845">
        <ele>265.16</ele>
        <time>2022-03-18T08:55:14Z</time>
      </trkpt>
      <trkpt lat="47.73434" lon="6.06824">
        <ele>263.41</ele>
        <time>2022-03-18T08:55:20Z</time>
      </trkpt>
      <trkpt lat="47.73446" lon="6.06803">
        <ele>262.36</ele>
        <time>2022-03-18T08:55:25Z</time>
      </trkpt>
      <trkpt lat="47.73462" lon="6.06784">
        <ele>261.26</ele>
        <time>2022-03-18T08:55:31Z</time>
      </trkpt>
      <trkpt lat="47.73478" lon="6.06768">
        <ele>262.07</ele>
        <time>2022-03-18T08:55:37Z</time>
      </trkpt>
      <trkpt lat="47.73494" lon="6.0675">
        <ele>262.84</ele>
        <time>2022-03-18T08:55:43Z</time>
      </trkpt>
      <trkpt lat="47.7351" lon="6.06734">
        <ele>263.88</ele>
        <time>2022-03-18T08:55:49Z</time>
      </trkpt>
      <trkpt lat="47.73527" lon="6.06717">
        <ele>264.16</ele>
        <time>2022-03-18T08:55:55Z</time>
      </trkpt>
      <trkpt lat="47.73542" lon="6.06703">
        <ele>264.84</ele>
        <time>2022-03-18T08:56:00Z</time>
      </trkpt>
      <trkpt lat="47.73559" lon="6.06686">
        <ele>265.45</ele>
        <time>2022-03-18T08:56:05Z</time>
      </trkpt>
      <trkpt lat="47.73576" lon="6.06668">
        <ele>265.97</ele>
        <time>2022-03-18T08:56:09Z</time>
      </trkpt>
      <trkpt lat="47.73593" lon="6.06647">
        <ele>266.31</ele>
        <time>2022-03-18T08:56:13Z</time>
      </trkpt>
      <trkpt lat="47.73607" lon="6.06628">
        <ele>265.91</ele>
        <time>2022-03-18T08:56:16Z</time>
      </trkpt>
      <trkpt lat="47.73621" lon="6.06602">
        <ele>265.28</ele>
        <time>2022-03-18T08:56:19Z</time>
      </trkpt>
      <trkpt lat="47.73634" lon="6.06576">
        <ele>264.39</ele>
        <time>2022-03-18T08:56:22Z</time>
      </trkpt>
      <trkpt lat="47.73649" lon="6.06552">
        <ele>263.77</ele>
        <time>2022-03-18T08:56:25Z</time>
      </trkpt>
      <trkpt lat="47.73663" lon="6.06533">
        <ele>262.94</ele>
        <time>2022-03-18T08:56:28Z</time>
      </trkpt>
      <trkpt lat="47.73683" lon="6.06526">
        <ele>261.12</ele>
        <time>2022-03-18T08:56:35Z</time>
      </trkpt>
      <trkpt lat="47.737" lon="6.06541">
        <ele>260.05</ele>
        <time>2022-03-18T08:56:40Z</time>
      </trkpt>
      <trkpt lat="47.73716" lon="6.06557">
        <ele>258.77</ele>
        <time>2022-03-18T08:56:45Z</time>
      </trkpt>
      <trkpt lat="47.73732" lon="6.06572">
        <ele>256.6</ele>
        <time>2022-03-18T08:56:49Z</time>
      </trkpt>
      <trkpt lat="47.73749" lon="6.06589">
        <ele>255.91</ele>
        <time>2022-03-18T08:56:53Z</time>
      </trkpt>
      <trkpt lat="47.73765" lon="6.06605">
        <ele>255.38</ele>
        <time>2022-03-18T08:56:56Z</time>
      </trkpt>
      <trkpt lat="47.73782" lon="6.0663">
        <ele>255.16</ele>
        <time>2022-03-18T08:56:59Z</time>
      </trkpt>
      <trkpt lat="47.73793" lon="6.06651">
        <ele>254.78</ele>
        <time>2022-03-18T08:57:01Z</time>
      </trkpt>
      <trkpt lat="47.73804" lon="6.06674">
        <ele>254.16</ele>
        <time>2022-03-18T08:57:03Z</time>
      </trkpt>
      <trkpt lat="47.73816" lon="6.06697">
        <ele>253.58</ele>
        <time>2022-03-18T08:57:05Z</time>
      </trkpt>
      <trkpt lat="47.73831" lon="6.06721">
        <ele>251.96</ele>
        <time>2022-03-18T08:57:07Z</time>
      </trkpt>
      <trkpt lat="47.73846" lon="6.06744">
        <ele>250.25</ele>
        <time>2022-03-18T08:57:09Z</time>
      </trkpt>
      <trkpt lat="47.7386" lon="6.06767">
        <ele>249.13</ele>
        <time>2022-03-18T08:57:11Z</time>
      </trkpt>
      <trkpt lat="47.73874" lon="6.06791">
        <ele>248.14</ele>
        <time>2022-03-18T08:57:13Z</time>
      </trkpt>
      <trkpt lat="47.73887" lon="6.06812">
        <ele>246.77</ele>
        <time>2022-03-18T08:57:15Z</time>
      </trkpt>
      <trkpt lat="47.73901" lon="6.06834">
        <ele>245.43</ele>
        <time>2022-03-18T08:57:17Z</time>
      </trkpt>
      <trkpt lat="47.73915" lon="6.06856">
        <ele>244.1</ele>
        <time>2022-03-18T08:57:19Z</time>
      </trkpt>
      <trkpt lat="47.73928" lon="6.06877">
        <ele>242.46</ele>
        <time>2022-03-18T08:57:21Z</time>
      </trkpt>
      <trkpt lat="47.73945" lon="6.06906">
        <ele>241.59</ele>
        <time>2022-03-18T08:57:24Z</time>
      </trkpt>
      <trkpt lat="47.73956" lon="6.06933">
        <ele>241.22</ele>
        <time>2022-03-18T08:57:27Z</time>
      </trkpt>
      <trkpt lat="47.73963" lon="6.06959">
        <ele>240.17</ele>
        <time>2022-03-18T08:57:30Z</time>
      </trkpt>
      <trkpt lat="47.73972" lon="6.06994">
        <ele>239.66</ele>
        <time>2022-03-18T08:57:34Z</time>
      </trkpt>
      <trkpt lat="47.73979" lon="6.07021">
        <ele>238.62</ele>
        <time>2022-03-18T08:57:38Z</time>
      </trkpt>
      <trkpt lat="47.73985" lon="6.07051">
        <ele>237.83</ele>
        <time>2022-03-18T08:57:43Z</time>
      </trkpt>
      <trkpt lat="47.73991" lon="6.07082">
        <ele>236.82</ele>
        <time>2022-03-18T08:57:47Z</time>
      </trkpt>
      <trkpt lat="47.73997" lon="6.07111">
        <ele>236.3</ele>
        <time>2022-03-18T08:57:53Z</time>
      </trkpt>
      <trkpt lat="47.74003" lon="6.07137">
        <ele>236.3</ele>
        <time>2022-03-18T08:57:58Z</time>
      </trkpt>
      <trkpt lat="47.74009" lon="6.07167">
        <ele>235.02</ele>
        <time>2022-03-18T08:58:04Z</time>
      </trkpt>
      <trkpt lat="47.74015" lon="6.07193">
        <ele>234.13</ele>
        <time>2022-03-18T08:58:09Z</time>
      </trkpt>
      <trkpt lat="47.74022" lon="6.0722">
        <ele>235.1</ele>
        <time>2022-03-18T08:58:15Z</time>
      </trkpt>
      <trkpt lat="47.74027" lon="6.07247">
        <ele>235.56</ele>
        <time>2022-03-18T08:58:21Z</time>
      </trkpt>
      <trkpt lat="47.74032" lon="6.07276">
        <ele>235.22</ele>
        <time>2022-03-18T08:58:27Z</time>
      </trkpt>
      <trkpt lat="47.74037" lon="6.07303">
        <ele>234.36</ele>
        <time>2022-03-18T08:58:33Z</time>
      </trkpt>
      <trkpt lat="47.74043" lon="6.07334">
        <ele>233.7</ele>
        <time>2022-03-18T08:58:39Z</time>
      </trkpt>
      <trkpt lat="47.74049" lon="6.07362">
        <ele>232.89</ele>
        <time>2022-03-18T08:58:44Z</time>
      </trkpt>
      <trkpt lat="47.74054" lon="6.0739">
        <ele>231.97</ele>
        <time>2022-03-18T08:58:50Z</time>
      </trkpt>
      <trkpt lat="47.74058" lon="6.07421">
        <ele>231.45</ele>
        <time>2022-03-18T08:58:56Z</time>
      </trkpt>
      <trkpt lat="47.74062" lon="6.07451">
        <ele>230.04</ele>
        <time>2022-03-18T08:59:01Z</time>
      </trkpt>
      <trkpt lat="47.74067" lon="6.07477">
        <ele>228.79</ele>
        <time>2022-03-18T08:59:05Z</time>
      </trkpt>
      <trkpt lat="47.74074" lon="6.07506">
        <ele>227.55</ele>
        <time>2022-03-18T08:59:09Z</time>
      </trkpt>
      <trkpt lat="47.74082" lon="6.07535">
        <ele>226.66</ele>
        <time>2022-03-18T08:59:13Z</time>
      </trkpt>
      <trkpt lat="47.74092" lon="6.07558">
        <ele>225.96</ele>
        <time>2022-03-18T08:59:16Z</time>
      </trkpt>
      <trkpt lat="47.74101" lon="6.07583">
        <ele>225.17</ele>
        <time>2022-03-18T08:59:19Z</time>
      </trkpt>
      <trkpt lat="47.74111" lon="6.07607">
        <ele>224.47</ele>
        <time>2022-03-18T08:59:22Z</time>
      </trkpt>
      <trkpt lat="47.74125" lon="6.07633">
        <ele>223.33</ele>
        <time>2022-03-18T08:59:25Z</time>
      </trkpt>
      <trkpt lat="47.74142" lon="6.07662">
        <ele>221.7</ele>
        <time>2022-03-18T08:59:28Z</time>
      </trkpt>
      <trkpt lat="47.74154" lon="6.07694">
        <ele>221.04</ele>
        <time>2022-03-18T08:59:31Z</time>
      </trkpt>
      <trkpt lat="47.74159" lon="6.07725">
        <ele>220.71</ele>
        <time>2022-03-18T08:59:34Z</time>
      </trkpt>
      <trkpt lat="47.74164" lon="6.07752">
        <ele>220.56</ele>
        <time>2022-03-18T08:59:37Z</time>
      </trkpt>
      <trkpt lat="47.74175" lon="6.07784">
        <ele>219.4</ele>
        <time>2022-03-18T08:59:40Z</time>
      </trkpt>
      <trkpt lat="47.74193" lon="6.07807">
        <ele>218.6</ele>
        <time>2022-03-18T08:59:44Z</time>
      </trkpt>
      <trkpt lat="47.7421" lon="6.07827">
        <ele>218.57</ele>
        <time>2022-03-18T08:59:48Z</time>
      </trkpt>
      <trkpt lat="47.74227" lon="6.07845">
        <ele>218.63</ele>
        <time>2022-03-18T08:59:52Z</time>
      </trkpt>
      <trkpt lat="47.74244" lon="6.07858">
        <ele>218.69</ele>
        <time>2022-03-18T08:59:56Z</time>
      </trkpt>
      <trkpt lat="47.74262" lon="6.07866">
        <ele>220.09</ele>
        <time>2022-03-18T09:00:01Z</time>
      </trkpt>
      <trkpt lat="47.7428" lon="6.07867">
        <ele>220.44</ele>
        <time>2022-03-18T09:00:06Z</time>
      </trkpt>
      <trkpt lat="47.74297" lon="6.07855">
        <ele>220.55</ele>
        <time>2022-03-18T09:00:13Z</time>
      </trkpt>
      <trkpt lat="47.74312" lon="6.07838">
        <ele>220.02</ele>
        <time>2022-03-18T09:00:18Z</time>
      </trkpt>
      <trkpt lat="47.74329" lon="6.07816">
        <ele>219.53</ele>
        <time>2022-03-18T09:00:23Z</time>
      </trkpt>
      <trkpt lat="47.74348" lon="6.07799">
        <ele>219.09</ele>
        <time>2022-03-18T09:00:27Z</time>
      </trkpt>
      <trkpt lat="47.74367" lon="6.07789">
        <ele>217.82</ele>
        <time>2022-03-18T09:00:32Z</time>
      </trkpt>
      <trkpt lat="47.74385" lon="6.0778">
        <ele>217.11</ele>
        <time>2022-03-18T09:00:37Z</time>
      </trkpt>
      <trkpt lat="47.74405" lon="6.07777">
        <ele>215.97</ele>
        <time>2022-03-18T09:00:42Z</time>
      </trkpt>
      <trkpt lat="47.74426" lon="6.07775">
        <ele>216.62</ele>
        <time>2022-03-18T09:00:47Z</time>
      </trkpt>
      <trkpt lat="47.74449" lon="6.07775">
        <ele>217.43</ele>
        <time>2022-03-18T09:00:52Z</time>
      </trkpt>
      <trkpt lat="47.7447" lon="6.07768">
        <ele>218.01</ele>
        <time>2022-03-18T09:00:57Z</time>
      </trkpt>
      <trkpt lat="47.74487" lon="6.07752">
        <ele>218.75</ele>
        <time>2022-03-18T09:01:02Z</time>
      </trkpt>
      <trkpt lat="47.74494" lon="6.07726">
        <ele>219.24</ele>
        <time>2022-03-18T09:01:08Z</time>
      </trkpt>
      <trkpt lat="47.745" lon="6.07701">
        <ele>220.12</ele>
        <time>2022-03-18T09:01:13Z</time>
      </trkpt>
      <trkpt lat="47.74513" lon="6.07681">
        <ele>221.6</ele>
        <time>2022-03-18T09:01:18Z</time>
      </trkpt>
      <trkpt lat="47.7453" lon="6.0767">
        <ele>221.47</ele>
        <time>2022-03-18T09:01:22Z</time>
      </trkpt>
      <trkpt lat="47.74548" lon="6.0766">
        <ele>221.45</ele>
        <time>2022-03-18T09:01:26Z</time>
      </trkpt>
      <trkpt lat="47.74568" lon="6.07647">
        <ele>219.89</ele>
        <time>2022-03-18T09:01:31Z</time>
      </trkpt>
      <trkpt lat="47.74585" lon="6.07628">
        <ele>219.21</ele>
        <time>2022-03-18T09:01:36Z</time>
      </trkpt>
      <trkpt lat="47.74594" lon="6.07604">
        <ele>219.18</ele>
        <time>2022-03-18T09:01:41Z</time>
      </trkpt>
      <trkpt lat="47.74603" lon="6.07578">
        <ele>219.86</ele>
        <time>2022-03-18T09:01:47Z</time>
      </trkpt>
      <trkpt lat="47.74613" lon="6.07553">
        <ele>220.7</ele>
        <time>2022-03-18T09:01:52Z</time>
      </trkpt>
      <trkpt lat="47.7462" lon="6.07528">
        <ele>220.55</ele>
        <time>2022-03-18T09:01:57Z</time>
      </trkpt>
      <trkpt lat="47.74623" lon="6.07499">
        <ele>220.39</ele>
        <time>2022-03-18T09:02:00Z</time>
      </trkpt>
      <trkpt lat="47.74618" lon="6.07466">
        <ele>220.08</ele>
        <time>2022-03-18T09:02:05Z</time>
      </trkpt>
      <trkpt lat="47.7461" lon="6.0744">
        <ele>219.38</ele>
        <time>2022-03-18T09:02:10Z</time>
      </trkpt>
      <trkpt lat="47.74605" lon="6.07411">
        <ele>218.93</ele>
        <time>2022-03-18T09:02:14Z</time>
      </trkpt>
      <trkpt lat="47.746" lon="6.07385">
        <ele>219.05</ele>
        <time>2022-03-18T09:02:18Z</time>
      </trkpt>
      <trkpt lat="47.74596" lon="6.07357">
        <ele>219.6</ele>
        <time>2022-03-18T09:02:22Z</time>
      </trkpt>
      <trkpt lat="47.74593" lon="6.0733">
        <ele>218.77</ele>
        <time>2022-03-18T09:02:26Z</time>
      </trkpt>
      <trkpt lat="47.74588" lon="6.073">
        <ele>217.83</ele>
        <time>2022-03-18T09:02:31Z</time>
      </trkpt>
      <trkpt lat="47.74585" lon="6.07269">
        <ele>217.3</ele>
        <time>2022-03-18T09:02:36Z</time>
      </trkpt>
      <trkpt lat="47.74591" lon="6.07239">
        <ele>217.94</ele>
        <time>2022-03-18T09:02:42Z</time>
      </trkpt>
      <trkpt lat="47.74597" lon="6.07211">
        <ele>218.39</ele>
        <time>2022-03-18T09:02:47Z</time>
      </trkpt>
      <trkpt lat="47.74606" lon="6.07181">
        <ele>220.66</ele>
        <time>2022-03-18T09:02:52Z</time>
      </trkpt>
      <trkpt lat="47.74614" lon="6.07153">
        <ele>222.03</ele>
        <time>2022-03-18T09:02:57Z</time>
      </trkpt>
      <trkpt lat="47.74623" lon="6.07125">
        <ele>223.3</ele>
        <time>2022-03-18T09:03:02Z</time>
      </trkpt>
      <trkpt lat="47.7463" lon="6.07099">
        <ele>224.4</ele>
        <time>2022-03-18T09:03:06Z</time>
      </trkpt>
      <trkpt lat="47.74638" lon="6.0707">
        <ele>224.19</ele>
        <time>2022-03-18T09:03:11Z</time>
      </trkpt>
      <trkpt lat="47.74645" lon="6.07044">
        <ele>224.52</ele>
        <time>2022-03-18T09:03:15Z</time>
      </trkpt>
      <trkpt lat="47.74654" lon="6.07014">
        <ele>225.21</ele>
        <time>2022-03-18T09:03:19Z</time>
      </trkpt>
      <trkpt lat="47.74661" lon="6.06987">
        <ele>225.9</ele>
        <time>2022-03-18T09:03:23Z</time>
      </trkpt>
      <trkpt lat="47.7467" lon="6.06956">
        <ele>225.51</ele>
        <time>2022-03-18T09:03:28Z</time>
      </trkpt>
      <trkpt lat="47.74677" lon="6.0693">
        <ele>225.54</ele>
        <time>2022-03-18T09:03:32Z</time>
      </trkpt>
      <trkpt lat="47.74683" lon="6.06904">
        <ele>225.04</ele>
        <time>2022-03-18T09:03:36Z</time>
      </trkpt>
      <trkpt lat="47.74686" lon="6.06877">
        <ele>224.56</ele>
        <time>2022-03-18T09:03:40Z</time>
      </trkpt>
      <trkpt lat="47.74689" lon="6.0685">
        <ele>223.8</ele>
        <time>2022-03-18T09:03:44Z</time>
      </trkpt>
      <trkpt lat="47.74691" lon="6.06822">
        <ele>222.26</ele>
        <time>2022-03-18T09:03:48Z</time>
      </trkpt>
      <trkpt lat="47.74695" lon="6.06789">
        <ele>219.8</ele>
        <time>2022-03-18T09:03:53Z</time>
      </trkpt>
      <trkpt lat="47.74697" lon="6.06762">
        <ele>218.94</ele>
        <time>2022-03-18T09:03:57Z</time>
      </trkpt>
      <trkpt lat="47.74698" lon="6.06734">
        <ele>218.53</ele>
        <time>2022-03-18T09:04:01Z</time>
      </trkpt>
      <trkpt lat="47.74698" lon="6.06704">
        <ele>217.3</ele>
        <time>2022-03-18T09:04:05Z</time>
      </trkpt>
      <trkpt lat="47.74698" lon="6.06674">
        <ele>216.27</ele>
        <time>2022-03-18T09:04:09Z</time>
      </trkpt>
      <trkpt lat="47.74697" lon="6.06643">
        <ele>215.23</ele>
        <time>2022-03-18T09:04:13Z</time>
      </trkpt>
      <trkpt lat="47.74696" lon="6.06616">
        <ele>215.51</ele>
        <time>2022-03-18T09:04:17Z</time>
      </trkpt>
      <trkpt lat="47.74698" lon="6.06584">
        <ele>215.48</ele>
        <time>2022-03-18T09:04:21Z</time>
      </trkpt>
      <trkpt lat="47.74695" lon="6.06556">
        <ele>215.33</ele>
        <time>2022-03-18T09:04:25Z</time>
      </trkpt>
      <trkpt lat="47.74695" lon="6.06527">
        <ele>215.52</ele>
        <time>2022-03-18T09:04:30Z</time>
      </trkpt>
      <trkpt lat="47.74694" lon="6.06498">
        <ele>215.28</ele>
        <time>2022-03-18T09:04:34Z</time>
      </trkpt>
      <trkpt lat="47.7469" lon="6.06471">
        <ele>216.1</ele>
        <time>2022-03-18T09:04:39Z</time>
      </trkpt>
      <trkpt lat="47.74688" lon="6.06445">
        <ele>216.92</ele>
        <time>2022-03-18T09:04:43Z</time>
      </trkpt>
      <trkpt lat="47.74691" lon="6.06413">
        <ele>216.66</ele>
        <time>2022-03-18T09:04:47Z</time>
      </trkpt>
      <trkpt lat="47.74697" lon="6.06381">
        <ele>215.99</ele>
        <time>2022-03-18T09:04:52Z</time>
      </trkpt>
      <trkpt lat="47.74707" lon="6.06351">
        <ele>215.28</ele>
        <time>2022-03-18T09:04:57Z</time>
      </trkpt>
      <trkpt lat="47.74716" lon="6.06324">
        <ele>214.01</ele>
        <time>2022-03-18T09:05:02Z</time>
      </trkpt>
      <trkpt lat="47.74726" lon="6.06295">
        <ele>213.5</ele>
        <time>2022-03-18T09:05:06Z</time>
      </trkpt>
      <trkpt lat="47.74733" lon="6.06269">
        <ele>213.07</ele>
        <time>2022-03-18T09:05:10Z</time>
      </trkpt>
      <trkpt lat="47.74741" lon="6.06245">
        <ele>213.28</ele>
        <time>2022-03-18T09:05:14Z</time>
      </trkpt>
      <trkpt lat="47.74749" lon="6.0622">
        <ele>213.55</ele>
        <time>2022-03-18T09:05:18Z</time>
      </trkpt>
      <trkpt lat="47.74756" lon="6.06195">
        <ele>215.04</ele>
        <time>2022-03-18T09:05:23Z</time>
      </trkpt>
      <trkpt lat="47.74764" lon="6.06168">
        <ele>215.73</ele>
        <time>2022-03-18T09:05:28Z</time>
      </trkpt>
      <trkpt lat="47.74773" lon="6.06139">
        <ele>216.69</ele>
        <time>2022-03-18T09:05:33Z</time>
      </trkpt>
      <trkpt lat="47.74781" lon="6.06113">
        <ele>217.46</ele>
        <time>2022-03-18T09:05:38Z</time>
      </trkpt>
      <trkpt lat="47.74791" lon="6.06083">
        <ele>218.79</ele>
        <time>2022-03-18T09:05:43Z</time>
      </trkpt>
      <trkpt lat="47.74798" lon="6.06057">
        <ele>219.88</ele>
        <time>2022-03-18T09:05:48Z</time>
      </trkpt>
      <trkpt lat="47.74806" lon="6.06029">
        <ele>220.49</ele>
        <time>2022-03-18T09:05:52Z</time>
      </trkpt>
      <trkpt lat="47.74815" lon="6.06001">
        <ele>220.59</ele>
        <time>2022-03-18T09:05:57Z</time>
      </trkpt>
      <trkpt lat="47.74824" lon="6.05973">
        <ele>219.51</ele>
        <time>2022-03-18T09:06:03Z</time>
      </trkpt>
      <trkpt lat="47.74844" lon="6.05975">
        <ele>218.77</ele>
        <time>2022-03-18T09:06:13Z</time>
      </trkpt>
      <trkpt lat="47.74863" lon="6.0599">
        <ele>218.34</ele>
        <time>2022-03-18T09:06:19Z</time>
      </trkpt>
      <trkpt lat="47.74881" lon="6.06006">
        <ele>218.12</ele>
        <time>2022-03-18T09:06:25Z</time>
      </trkpt>
      <trkpt lat="47.74898" lon="6.06021">
        <ele>217.44</ele>
        <time>2022-03-18T09:06:31Z</time>
      </trkpt>
      <trkpt lat="47.74913" lon="6.06035">
        <ele>217.22</ele>
        <time>2022-03-18T09:06:36Z</time>
      </trkpt>
      <trkpt lat="47.7493" lon="6.06049">
        <ele>216.71</ele>
        <time>2022-03-18T09:06:41Z</time>
      </trkpt>
      <trkpt lat="47.74945" lon="6.06063">
        <ele>216.47</ele>
        <time>2022-03-18T09:06:46Z</time>
      </trkpt>
      <trkpt lat="47.74962" lon="6.06081">
        <ele>216.58</ele>
        <time>2022-03-18T09:06:52Z</time>
      </trkpt>
      <trkpt lat="47.74977" lon="6.06096">
        <ele>216.99</ele>
        <time>2022-03-18T09:06:57Z</time>
      </trkpt>
      <trkpt lat="47.74995" lon="6.06112">
        <ele>216.95</ele>
        <time>2022-03-18T09:07:03Z</time>
      </trkpt>
      <trkpt lat="47.75012" lon="6.06128">
        <ele>217.13</ele>
        <time>2022-03-18T09:07:09Z</time>
      </trkpt>
      <trkpt lat="47.75029" lon="6.06145">
        <ele>217.59</ele>
        <time>2022-03-18T09:07:15Z</time>
      </trkpt>
      <trkpt lat="47.75044" lon="6.06159">
        <ele>218.07</ele>
        <time>2022-03-18T09:07:21Z</time>
      </trkpt>
      <trkpt lat="47.75063" lon="6.06164">
        <ele>217.84</ele>
        <time>2022-03-18T09:07:26Z</time>
      </trkpt>
      <trkpt lat="47.7508" lon="6.06153">
        <ele>217.42</ele>
        <time>2022-03-18T09:07:33Z</time>
      </trkpt>
      <trkpt lat="47.7509" lon="6.06126">
        <ele>218.77</ele>
        <time>2022-03-18T09:07:40Z</time>
      </trkpt>
      <trkpt lat="47.75101" lon="6.06101">
        <ele>219.47</ele>
        <time>2022-03-18T09:07:47Z</time>
      </trkpt>
      <trkpt lat="47.75113" lon="6.06077">
        <ele>219.51</ele>
        <time>2022-03-18T09:07:52Z</time>
      </trkpt>
      <trkpt lat="47.75125" lon="6.06052">
        <ele>218.42</ele>
        <time>2022-03-18T09:07:57Z</time>
      </trkpt>
      <trkpt lat="47.75132" lon="6.06025">
        <ele>217.48</ele>
        <time>2022-03-18T09:08:00Z</time>
      </trkpt>
      <trkpt lat="47.75137" lon="6.05965">
        <ele>217.02</ele>
        <time>2022-03-18T09:08:01Z</time>
      </trkpt>
      <trkpt lat="47.75118" lon="6.05959">
        <ele>212.82</ele>
        <time>2022-03-18T09:08:10Z</time>
      </trkpt>
      <trkpt lat="47.751" lon="6.05956">
        <ele>216.61</ele>
        <time>2022-03-18T09:08:20Z</time>
      </trkpt>
      <trkpt lat="47.75088" lon="6.05934">
        <ele>218.92</ele>
        <time>2022-03-18T09:08:25Z</time>
      </trkpt>
      <trkpt lat="47.75076" lon="6.05913">
        <ele>220.98</ele>
        <time>2022-03-18T09:08:29Z</time>
      </trkpt>
      <trkpt lat="47.75065" lon="6.05891">
        <ele>222.72</ele>
        <time>2022-03-18T09:08:33Z</time>
      </trkpt>
      <trkpt lat="47.7505" lon="6.05868">
        <ele>224.77</ele>
        <time>2022-03-18T09:08:38Z</time>
      </trkpt>
      <trkpt lat="47.75035" lon="6.05851">
        <ele>225.55</ele>
        <time>2022-03-18T09:08:43Z</time>
      </trkpt>
      <trkpt lat="47.75021" lon="6.05831">
        <ele>225.83</ele>
        <time>2022-03-18T09:08:48Z</time>
      </trkpt>
      <trkpt lat="47.75006" lon="6.05807">
        <ele>227.22</ele>
        <time>2022-03-18T09:08:53Z</time>
      </trkpt>
      <trkpt lat="47.74995" lon="6.05786">
        <ele>228.65</ele>
        <time>2022-03-18T09:08:58Z</time>
      </trkpt>
      <trkpt lat="47.74982" lon="6.05766">
        <ele>229.3</ele>
        <time>2022-03-18T09:09:02Z</time>
      </trkpt>
      <trkpt lat="47.74967" lon="6.05746">
        <ele>230.89</ele>
        <time>2022-03-18T09:09:07Z</time>
      </trkpt>
      <trkpt lat="47.74955" lon="6.05723">
        <ele>231.17</ele>
        <time>2022-03-18T09:09:12Z</time>
      </trkpt>
      <trkpt lat="47.74944" lon="6.057">
        <ele>230.15</ele>
        <time>2022-03-18T09:09:16Z</time>
      </trkpt>
      <trkpt lat="47.74931" lon="6.05676">
        <ele>226.76</ele>
        <time>2022-03-18T09:09:21Z</time>
      </trkpt>
      <trkpt lat="47.74927" lon="6.05647">
        <ele>223.02</ele>
        <time>2022-03-18T09:09:27Z</time>
      </trkpt>
      <trkpt lat="47.74935" lon="6.05618">
        <ele>224.1</ele>
        <time>2022-03-18T09:09:32Z</time>
      </trkpt>
      <trkpt lat="47.74942" lon="6.05592">
        <ele>225.03</ele>
        <time>2022-03-18T09:09:36Z</time>
      </trkpt>
      <trkpt lat="47.7495" lon="6.05566">
        <ele>225.6</ele>
        <time>2022-03-18T09:09:41Z</time>
      </trkpt>
      <trkpt lat="47.74961" lon="6.05537">
        <ele>226.44</ele>
        <time>2022-03-18T09:09:46Z</time>
      </trkpt>
      <trkpt lat="47.74971" lon="6.0551">
        <ele>227.7</ele>
        <time>2022-03-18T09:09:51Z</time>
      </trkpt>
      <trkpt lat="47.74982" lon="6.05483">
        <ele>228.51</ele>
        <time>2022-03-18T09:09:56Z</time>
      </trkpt>
      <trkpt lat="47.74993" lon="6.0546">
        <ele>228.63</ele>
        <time>2022-03-18T09:10:01Z</time>
      </trkpt>
      <trkpt lat="47.75006" lon="6.05437">
        <ele>228.12</ele>
        <time>2022-03-18T09:10:06Z</time>
      </trkpt>
      <trkpt lat="47.75017" lon="6.05414">
        <ele>228.68</ele>
        <time>2022-03-18T09:10:10Z</time>
      </trkpt>
      <trkpt lat="47.7503" lon="6.05388">
        <ele>227.54</ele>
        <time>2022-03-18T09:10:15Z</time>
      </trkpt>
      <trkpt lat="47.75042" lon="6.05363">
        <ele>227.17</ele>
        <time>2022-03-18T09:10:19Z</time>
      </trkpt>
      <trkpt lat="47.75053" lon="6.0534">
        <ele>225.61</ele>
        <time>2022-03-18T09:10:23Z</time>
      </trkpt>
      <trkpt lat="47.75063" lon="6.05318">
        <ele>224.71</ele>
        <time>2022-03-18T09:10:27Z</time>
      </trkpt>
      <trkpt lat="47.75076" lon="6.05293">
        <ele>224.47</ele>
        <time>2022-03-18T09:10:32Z</time>
      </trkpt>
      <trkpt lat="47.75087" lon="6.0527">
        <ele>222.71</ele>
        <time>2022-03-18T09:10:36Z</time>
      </trkpt>
      <trkpt lat="47.751" lon="6.05245">
        <ele>221.11</ele>
        <time>2022-03-18T09:10:41Z</time>
      </trkpt>
      <trkpt lat="47.75112" lon="6.05218">
        <ele>220.43</ele>
        <time>2022-03-18T09:10:46Z</time>
      </trkpt>
      <trkpt lat="47.75124" lon="6.05194">
        <ele>220.44</ele>
        <time>2022-03-18T09:10:50Z</time>
      </trkpt>
      <trkpt lat="47.75134" lon="6.05172">
        <ele>220.72</ele>
        <time>2022-03-18T09:10:54Z</time>
      </trkpt>
      <trkpt lat="47.75147" lon="6.05146">
        <ele>221.44</ele>
        <time>2022-03-18T09:10:59Z</time>
      </trkpt>
      <trkpt lat="47.7516" lon="6.05121">
        <ele>221.64</ele>
        <time>2022-03-18T09:11:04Z</time>
      </trkpt>
      <trkpt lat="47.75172" lon="6.05096">
        <ele>222.72</ele>
        <time>2022-03-18T09:11:09Z</time>
      </trkpt>
      <trkpt lat="47.75184" lon="6.05072">
        <ele>222.88</ele>
        <time>2022-03-18T09:11:14Z</time>
      </trkpt>
      <trkpt lat="47.75197" lon="6.05045">
        <ele>224.59</ele>
        <time>2022-03-18T09:11:19Z</time>
      </trkpt>
      <trkpt lat="47.75207" lon="6.05022">
        <ele>225.03</ele>
        <time>2022-03-18T09:11:23Z</time>
      </trkpt>
      <trkpt lat="47.75217" lon="6.04995">
        <ele>225.99</ele>
        <time>2022-03-18T09:11:28Z</time>
      </trkpt>
      <trkpt lat="47.75226" lon="6.0497">
        <ele>226.79</ele>
        <time>2022-03-18T09:11:33Z</time>
      </trkpt>
      <trkpt lat="47.75234" lon="6.04944">
        <ele>227.76</ele>
        <time>2022-03-18T09:11:41Z</time>
      </trkpt>
      <trkpt lat="47.75232" lon="6.04916">
        <ele>225.15</ele>
        <time>2022-03-18T09:11:46Z</time>
      </trkpt>
      <trkpt lat="47.75213" lon="6.04918">
        <ele>225.01</ele>
        <time>2022-03-18T09:11:52Z</time>
      </trkpt>
      <trkpt lat="47.75193" lon="6.04924">
        <ele>227.51</ele>
        <time>2022-03-18T09:11:58Z</time>
      </trkpt>
      <trkpt lat="47.75172" lon="6.04929">
        <ele>228.33</ele>
        <time>2022-03-18T09:12:04Z</time>
      </trkpt>
      <trkpt lat="47.7515" lon="6.04935">
        <ele>228.46</ele>
        <time>2022-03-18T09:12:08Z</time>
      </trkpt>
      <trkpt lat="47.75131" lon="6.04939">
        <ele>228.65</ele>
        <time>2022-03-18T09:12:12Z</time>
      </trkpt>
      <trkpt lat="47.75111" lon="6.04942">
        <ele>228.67</ele>
        <time>2022-03-18T09:12:16Z</time>
      </trkpt>
      <trkpt lat="47.7509" lon="6.04947">
        <ele>229.01</ele>
        <time>2022-03-18T09:12:20Z</time>
      </trkpt>
      <trkpt lat="47.75071" lon="6.04952">
        <ele>229.75</ele>
        <time>2022-03-18T09:12:24Z</time>
      </trkpt>
      <trkpt lat="47.7505" lon="6.04957">
        <ele>230.76</ele>
        <time>2022-03-18T09:12:28Z</time>
      </trkpt>
      <trkpt lat="47.7503" lon="6.04961">
        <ele>231.38</ele>
        <time>2022-03-18T09:12:32Z</time>
      </trkpt>
      <trkpt lat="47.75009" lon="6.04966">
        <ele>231.24</ele>
        <time>2022-03-18T09:12:36Z</time>
      </trkpt>
      <trkpt lat="47.74988" lon="6.0497">
        <ele>231.19</ele>
        <time>2022-03-18T09:12:40Z</time>
      </trkpt>
      <trkpt lat="47.74969" lon="6.04974">
        <ele>231.34</ele>
        <time>2022-03-18T09:12:44Z</time>
      </trkpt>
      <trkpt lat="47.7495" lon="6.04978">
        <ele>231.71</ele>
        <time>2022-03-18T09:12:48Z</time>
      </trkpt>
      <trkpt lat="47.74928" lon="6.04982">
        <ele>232.52</ele>
        <time>2022-03-18T09:12:53Z</time>
      </trkpt>
      <trkpt lat="47.7491" lon="6.04987">
        <ele>233.42</ele>
        <time>2022-03-18T09:12:57Z</time>
      </trkpt>
      <trkpt lat="47.7489" lon="6.04991">
        <ele>233.68</ele>
        <time>2022-03-18T09:13:01Z</time>
      </trkpt>
      <trkpt lat="47.74871" lon="6.04995">
        <ele>233.67</ele>
        <time>2022-03-18T09:13:05Z</time>
      </trkpt>
      <trkpt lat="47.7485" lon="6.05">
        <ele>234.64</ele>
        <time>2022-03-18T09:13:10Z</time>
      </trkpt>
      <trkpt lat="47.74828" lon="6.05004">
        <ele>235.37</ele>
        <time>2022-03-18T09:13:14Z</time>
      </trkpt>
      <trkpt lat="47.74807" lon="6.05009">
        <ele>235.51</ele>
        <time>2022-03-18T09:13:18Z</time>
      </trkpt>
      <trkpt lat="47.74789" lon="6.05012">
        <ele>235.12</ele>
        <time>2022-03-18T09:13:21Z</time>
      </trkpt>
      <trkpt lat="47.74767" lon="6.05017">
        <ele>234.87</ele>
        <time>2022-03-18T09:13:25Z</time>
      </trkpt>
      <trkpt lat="47.74745" lon="6.05021">
        <ele>234.4</ele>
        <time>2022-03-18T09:13:29Z</time>
      </trkpt>
      <trkpt lat="47.74723" lon="6.05027">
        <ele>234.34</ele>
        <time>2022-03-18T09:13:33Z</time>
      </trkpt>
      <trkpt lat="47.74702" lon="6.05031">
        <ele>234.22</ele>
        <time>2022-03-18T09:13:37Z</time>
      </trkpt>
      <trkpt lat="47.74683" lon="6.05036">
        <ele>232.93</ele>
        <time>2022-03-18T09:13:40Z</time>
      </trkpt>
      <trkpt lat="47.74663" lon="6.05043">
        <ele>231.56</ele>
        <time>2022-03-18T09:13:44Z</time>
      </trkpt>
      <trkpt lat="47.74642" lon="6.05053">
        <ele>230.51</ele>
        <time>2022-03-18T09:13:48Z</time>
      </trkpt>
      <trkpt lat="47.74621" lon="6.05063">
        <ele>230.04</ele>
        <time>2022-03-18T09:13:52Z</time>
      </trkpt>
      <trkpt lat="47.74601" lon="6.05075">
        <ele>229.37</ele>
        <time>2022-03-18T09:13:56Z</time>
      </trkpt>
      <trkpt lat="47.74582" lon="6.05084">
        <ele>228.72</ele>
        <time>2022-03-18T09:14:00Z</time>
      </trkpt>
      <trkpt lat="47.74571" lon="6.0506">
        <ele>229.78</ele>
        <time>2022-03-18T09:14:05Z</time>
      </trkpt>
      <trkpt lat="47.74562" lon="6.05033">
        <ele>230.61</ele>
        <time>2022-03-18T09:14:09Z</time>
      </trkpt>
      <trkpt lat="47.74546" lon="6.05016">
        <ele>231.17</ele>
        <time>2022-03-18T09:14:13Z</time>
      </trkpt>
      <trkpt lat="47.74529" lon="6.04999">
        <ele>232.71</ele>
        <time>2022-03-18T09:14:17Z</time>
      </trkpt>
      <trkpt lat="47.74511" lon="6.04982">
        <ele>233.71</ele>
        <time>2022-03-18T09:14:21Z</time>
      </trkpt>
      <trkpt lat="47.74493" lon="6.04961">
        <ele>234.24</ele>
        <time>2022-03-18T09:14:25Z</time>
      </trkpt>
      <trkpt lat="47.74476" lon="6.04942">
        <ele>234.71</ele>
        <time>2022-03-18T09:14:29Z</time>
      </trkpt>
      <trkpt lat="47.74464" lon="6.04921">
        <ele>235.91</ele>
        <time>2022-03-18T09:14:32Z</time>
      </trkpt>
      <trkpt lat="47.74446" lon="6.049">
        <ele>237.88</ele>
        <time>2022-03-18T09:14:36Z</time>
      </trkpt>
      <trkpt lat="47.74431" lon="6.04884">
        <ele>238.15</ele>
        <time>2022-03-18T09:14:39Z</time>
      </trkpt>
      <trkpt lat="47.74415" lon="6.04867">
        <ele>237.9</ele>
        <time>2022-03-18T09:14:42Z</time>
      </trkpt>
      <trkpt lat="47.74399" lon="6.04851">
        <ele>237.16</ele>
        <time>2022-03-18T09:14:45Z</time>
      </trkpt>
      <trkpt lat="47.74383" lon="6.04836">
        <ele>236.99</ele>
        <time>2022-03-18T09:14:48Z</time>
      </trkpt>
      <trkpt lat="47.74367" lon="6.04822">
        <ele>236.74</ele>
        <time>2022-03-18T09:14:51Z</time>
      </trkpt>
      <trkpt lat="47.74348" lon="6.04803">
        <ele>236.76</ele>
        <time>2022-03-18T09:14:55Z</time>
      </trkpt>
      <trkpt lat="47.74331" lon="6.04782">
        <ele>235.5</ele>
        <time>2022-03-18T09:14:59Z</time>
      </trkpt>
      <trkpt lat="47.74313" lon="6.04761">
        <ele>233.09</ele>
        <time>2022-03-18T09:15:03Z</time>
      </trkpt>
      <trkpt lat="47.74294" lon="6.0474">
        <ele>230.89</ele>
        <time>2022-03-18T09:15:07Z</time>
      </trkpt>
      <trkpt lat="47.74274" lon="6.04721">
        <ele>228.85</ele>
        <time>2022-03-18T09:15:11Z</time>
      </trkpt>
      <trkpt lat="47.74255" lon="6.04702">
        <ele>227.46</ele>
        <time>2022-03-18T09:15:15Z</time>
      </trkpt>
      <trkpt lat="47.74236" lon="6.04682">
        <ele>226.56</ele>
        <time>2022-03-18T09:15:19Z</time>
      </trkpt>
      <trkpt lat="47.74221" lon="6.04668">
        <ele>225.83</ele>
        <time>2022-03-18T09:15:22Z</time>
      </trkpt>
      <trkpt lat="47.74201" lon="6.04647">
        <ele>225.48</ele>
        <time>2022-03-18T09:15:26Z</time>
      </trkpt>
      <trkpt lat="47.74186" lon="6.04632">
        <ele>225.08</ele>
        <time>2022-03-18T09:15:29Z</time>
      </trkpt>
      <trkpt lat="47.74171" lon="6.04616">
        <ele>224.63</ele>
        <time>2022-03-18T09:15:32Z</time>
      </trkpt>
      <trkpt lat="47.74156" lon="6.04602">
        <ele>224.29</ele>
        <time>2022-03-18T09:15:35Z</time>
      </trkpt>
      <trkpt lat="47.74136" lon="6.04583">
        <ele>224.29</ele>
        <time>2022-03-18T09:15:39Z</time>
      </trkpt>
      <trkpt lat="47.74116" lon="6.04564">
        <ele>224.53</ele>
        <time>2022-03-18T09:15:43Z</time>
      </trkpt>
      <trkpt lat="47.74098" lon="6.04544">
        <ele>225.69</ele>
        <time>2022-03-18T09:15:47Z</time>
      </trkpt>
      <trkpt lat="47.7408" lon="6.04525">
        <ele>227.36</ele>
        <time>2022-03-18T09:15:51Z</time>
      </trkpt>
      <trkpt lat="47.74063" lon="6.04509">
        <ele>228.78</ele>
        <time>2022-03-18T09:15:55Z</time>
      </trkpt>
      <trkpt lat="47.74046" lon="6.04494">
        <ele>229.63</ele>
        <time>2022-03-18T09:15:59Z</time>
      </trkpt>
      <trkpt lat="47.74027" lon="6.04474">
        <ele>230.51</ele>
        <time>2022-03-18T09:16:03Z</time>
      </trkpt>
      <trkpt lat="47.74011" lon="6.04459">
        <ele>230.58</ele>
        <time>2022-03-18T09:16:06Z</time>
      </trkpt>
      <trkpt lat="47.73991" lon="6.04439">
        <ele>230.74</ele>
        <time>2022-03-18T09:16:10Z</time>
      </trkpt>
      <trkpt lat="47.73976" lon="6.04423">
        <ele>230.46</ele>
        <time>2022-03-18T09:16:13Z</time>
      </trkpt>
      <trkpt lat="47.73957" lon="6.04404">
        <ele>230.42</ele>
        <time>2022-03-18T09:16:17Z</time>
      </trkpt>
      <trkpt lat="47.73941" lon="6.04391">
        <ele>230.24</ele>
        <time>2022-03-18T09:16:21Z</time>
      </trkpt>
      <trkpt lat="47.73923" lon="6.04367">
        <ele>229.64</ele>
        <time>2022-03-18T09:16:25Z</time>
      </trkpt>
      <trkpt lat="47.73906" lon="6.04345">
        <ele>230.04</ele>
        <time>2022-03-18T09:16:29Z</time>
      </trkpt>
      <trkpt lat="47.73887" lon="6.04327">
        <ele>230.43</ele>
        <time>2022-03-18T09:16:33Z</time>
      </trkpt>
      <trkpt lat="47.73867" lon="6.04312">
        <ele>230.89</ele>
        <time>2022-03-18T09:16:37Z</time>
      </trkpt>
      <trkpt lat="47.73851" lon="6.04295">
        <ele>228.17</ele>
        <time>2022-03-18T09:16:40Z</time>
      </trkpt>
      <trkpt lat="47.73834" lon="6.04283">
        <ele>225.79</ele>
        <time>2022-03-18T09:16:43Z</time>
      </trkpt>
      <trkpt lat="47.73816" lon="6.04273">
        <ele>224.81</ele>
        <time>2022-03-18T09:16:46Z</time>
      </trkpt>
      <trkpt lat="47.73799" lon="6.04263">
        <ele>224.41</ele>
        <time>2022-03-18T09:16:49Z</time>
      </trkpt>
      <trkpt lat="47.73778" lon="6.04251">
        <ele>224.87</ele>
        <time>2022-03-18T09:16:53Z</time>
      </trkpt>
      <trkpt lat="47.73761" lon="6.04241">
        <ele>225</ele>
        <time>2022-03-18T09:16:56Z</time>
      </trkpt>
      <trkpt lat="47.73737" lon="6.04234">
        <ele>224.95</ele>
        <time>2022-03-18T09:17:00Z</time>
      </trkpt>
      <trkpt lat="47.73717" lon="6.04236">
        <ele>223.48</ele>
        <time>2022-03-18T09:17:03Z</time>
      </trkpt>
      <trkpt lat="47.73697" lon="6.04243">
        <ele>222.35</ele>
        <time>2022-03-18T09:17:06Z</time>
      </trkpt>
      <trkpt lat="47.73679" lon="6.04252">
        <ele>221.43</ele>
        <time>2022-03-18T09:17:09Z</time>
      </trkpt>
      <trkpt lat="47.73659" lon="6.04261">
        <ele>220.05</ele>
        <time>2022-03-18T09:17:12Z</time>
      </trkpt>
      <trkpt lat="47.73641" lon="6.04269">
        <ele>219.14</ele>
        <time>2022-03-18T09:17:15Z</time>
      </trkpt>
      <trkpt lat="47.73624" lon="6.04277">
        <ele>218.46</ele>
        <time>2022-03-18T09:17:18Z</time>
      </trkpt>
      <trkpt lat="47.73601" lon="6.04287">
        <ele>217.7</ele>
        <time>2022-03-18T09:17:22Z</time>
      </trkpt>
      <trkpt lat="47.73579" lon="6.04295">
        <ele>217.25</ele>
        <time>2022-03-18T09:17:26Z</time>
      </trkpt>
      <trkpt lat="47.73555" lon="6.04295">
        <ele>217.07</ele>
        <time>2022-03-18T09:17:30Z</time>
      </trkpt>
      <trkpt lat="47.73538" lon="6.04287">
        <ele>217</ele>
        <time>2022-03-18T09:17:33Z</time>
      </trkpt>
      <trkpt lat="47.73521" lon="6.04275">
        <ele>216.83</ele>
        <time>2022-03-18T09:17:36Z</time>
      </trkpt>
      <trkpt lat="47.73503" lon="6.04262">
        <ele>216.37</ele>
        <time>2022-03-18T09:17:39Z</time>
      </trkpt>
      <trkpt lat="47.73486" lon="6.0425">
        <ele>216.1</ele>
        <time>2022-03-18T09:17:42Z</time>
      </trkpt>
      <trkpt lat="47.73469" lon="6.04238">
        <ele>215.73</ele>
        <time>2022-03-18T09:17:45Z</time>
      </trkpt>
      <trkpt lat="47.73453" lon="6.04226">
        <ele>215.79</ele>
        <time>2022-03-18T09:17:48Z</time>
      </trkpt>
      <trkpt lat="47.73436" lon="6.04215">
        <ele>215.78</ele>
        <time>2022-03-18T09:17:51Z</time>
      </trkpt>
      <trkpt lat="47.73415" lon="6.04203">
        <ele>215.61</ele>
        <time>2022-03-18T09:17:55Z</time>
      </trkpt>
      <trkpt lat="47.73396" lon="6.04189">
        <ele>216.47</ele>
        <time>2022-03-18T09:18:00Z</time>
      </trkpt>
      <trkpt lat="47.73378" lon="6.04177">
        <ele>218.11</ele>
        <time>2022-03-18T09:18:06Z</time>
      </trkpt>
      <trkpt lat="47.73359" lon="6.04166">
        <ele>220.14</ele>
        <time>2022-03-18T09:18:14Z</time>
      </trkpt>
      <trkpt lat="47.73342" lon="6.04156">
        <ele>220.95</ele>
        <time>2022-03-18T09:18:47Z</time>
      </trkpt>
      <trkpt lat="47.73324" lon="6.04146">
        <ele>222.84</ele>
        <time>2022-03-18T09:19:45Z</time>
      </trkpt>
      <trkpt lat="47.73305" lon="6.04153">
        <ele>222.83</ele>
        <time>2022-03-18T09:19:50Z</time>
      </trkpt>
      <trkpt lat="47.73298" lon="6.04185">
        <ele>222.23</ele>
        <time>2022-03-18T09:19:56Z</time>
      </trkpt>
      <trkpt lat="47.73293" lon="6.04212">
        <ele>223.25</ele>
        <time>2022-03-18T09:19:59Z</time>
      </trkpt>
      <trkpt lat="47.7329" lon="6.0424">
        <ele>223.65</ele>
        <time>2022-03-18T09:20:02Z</time>
      </trkpt>
      <trkpt lat="47.73283" lon="6.04274">
        <ele>224.44</ele>
        <time>2022-03-18T09:20:06Z</time>
      </trkpt>
      <trkpt lat="47.73273" lon="6.04302">
        <ele>224.4</ele>
        <time>2022-03-18T09:20:09Z</time>
      </trkpt>
      <trkpt lat="47.73261" lon="6.04327">
        <ele>223.98</ele>
        <time>2022-03-18T09:20:12Z</time>
      </trkpt>
      <trkpt lat="47.73246" lon="6.04346">
        <ele>224.94</ele>
        <time>2022-03-18T09:20:15Z</time>
      </trkpt>
      <trkpt lat="47.73228" lon="6.04369">
        <ele>226.23</ele>
        <time>2022-03-18T09:20:19Z</time>
      </trkpt>
      <trkpt lat="47.73216" lon="6.04388">
        <ele>226.47</ele>
        <time>2022-03-18T09:20:22Z</time>
      </trkpt>
      <trkpt lat="47.73201" lon="6.0441">
        <ele>227.12</ele>
        <time>2022-03-18T09:20:26Z</time>
      </trkpt>
      <trkpt lat="47.73185" lon="6.04433">
        <ele>227.36</ele>
        <time>2022-03-18T09:20:30Z</time>
      </trkpt>
      <trkpt lat="47.7317" lon="6.04457">
        <ele>225.16</ele>
        <time>2022-03-18T09:20:35Z</time>
      </trkpt>
      <trkpt lat="47.73156" lon="6.04474">
        <ele>224.49</ele>
        <time>2022-03-18T09:20:38Z</time>
      </trkpt>
      <trkpt lat="47.73139" lon="6.04504">
        <ele>224.11</ele>
        <time>2022-03-18T09:20:41Z</time>
      </trkpt>
      <trkpt lat="47.73124" lon="6.04524">
        <ele>224.4</ele>
        <time>2022-03-18T09:20:44Z</time>
      </trkpt>
      <trkpt lat="47.73104" lon="6.04542">
        <ele>225.45</ele>
        <time>2022-03-18T09:20:48Z</time>
      </trkpt>
      <trkpt lat="47.73084" lon="6.0456">
        <ele>226.78</ele>
        <time>2022-03-18T09:20:52Z</time>
      </trkpt>
      <trkpt lat="47.73064" lon="6.04577">
        <ele>225.78</ele>
        <time>2022-03-18T09:21:02Z</time>
      </trkpt>
      <trkpt lat="47.73045" lon="6.04596">
        <ele>224.68</ele>
        <time>2022-03-18T09:21:11Z</time>
      </trkpt>
      <trkpt lat="47.73029" lon="6.04614">
        <ele>225.44</ele>
        <time>2022-03-18T09:21:14Z</time>
      </trkpt>
      <trkpt lat="47.73011" lon="6.04628">
        <ele>224.72</ele>
        <time>2022-03-18T09:21:20Z</time>
      </trkpt>
      <trkpt lat="47.72994" lon="6.04643">
        <ele>224.14</ele>
        <time>2022-03-18T09:21:23Z</time>
      </trkpt>
      <trkpt lat="47.72976" lon="6.04659">
        <ele>224.45</ele>
        <time>2022-03-18T09:21:27Z</time>
      </trkpt>
      <trkpt lat="47.72955" lon="6.04676">
        <ele>225.65</ele>
        <time>2022-03-18T09:21:30Z</time>
      </trkpt>
      <trkpt lat="47.72933" lon="6.04684">
        <ele>226.74</ele>
        <time>2022-03-18T09:21:33Z</time>
      </trkpt>
      <trkpt lat="47.72911" lon="6.04682">
        <ele>228.36</ele>
        <time>2022-03-18T09:21:37Z</time>
      </trkpt>
      <trkpt lat="47.72893" lon="6.04671">
        <ele>233.31</ele>
        <time>2022-03-18T09:21:43Z</time>
      </trkpt>
      <trkpt lat="47.72873" lon="6.04689">
        <ele>236.09</ele>
        <time>2022-03-18T09:21:47Z</time>
      </trkpt>
      <trkpt lat="47.72857" lon="6.04705">
        <ele>235.37</ele>
        <time>2022-03-18T09:21:50Z</time>
      </trkpt>
      <trkpt lat="47.72835" lon="6.04717">
        <ele>234.58</ele>
        <time>2022-03-18T09:21:54Z</time>
      </trkpt>
      <trkpt lat="47.72814" lon="6.04706">
        <ele>234.37</ele>
        <time>2022-03-18T09:21:58Z</time>
      </trkpt>
      <trkpt lat="47.72795" lon="6.0469">
        <ele>234.34</ele>
        <time>2022-03-18T09:22:02Z</time>
      </trkpt>
      <trkpt lat="47.72781" lon="6.04671">
        <ele>235.99</ele>
        <time>2022-03-18T09:22:06Z</time>
      </trkpt>
      <trkpt lat="47.72765" lon="6.0465">
        <ele>237.75</ele>
        <time>2022-03-18T09:22:10Z</time>
      </trkpt>
      <trkpt lat="47.7275" lon="6.0463">
        <ele>239.04</ele>
        <time>2022-03-18T09:22:14Z</time>
      </trkpt>
      <trkpt lat="47.72733" lon="6.04606">
        <ele>238.94</ele>
        <time>2022-03-18T09:22:18Z</time>
      </trkpt>
      <trkpt lat="47.72716" lon="6.04581">
        <ele>238.54</ele>
        <time>2022-03-18T09:22:22Z</time>
      </trkpt>
      <trkpt lat="47.72704" lon="6.04554">
        <ele>238.81</ele>
        <time>2022-03-18T09:22:26Z</time>
      </trkpt>
      <trkpt lat="47.7269" lon="6.04534">
        <ele>238.66</ele>
        <time>2022-03-18T09:22:29Z</time>
      </trkpt>
      <trkpt lat="47.72676" lon="6.04516">
        <ele>239.63</ele>
        <time>2022-03-18T09:22:32Z</time>
      </trkpt>
      <trkpt lat="47.72665" lon="6.04493">
        <ele>238.6</ele>
        <time>2022-03-18T09:22:35Z</time>
      </trkpt>
      <trkpt lat="47.72651" lon="6.04471">
        <ele>236.19</ele>
        <time>2022-03-18T09:22:38Z</time>
      </trkpt>
      <trkpt lat="47.72638" lon="6.04451">
        <ele>233.67</ele>
        <time>2022-03-18T09:22:41Z</time>
      </trkpt>
      <trkpt lat="47.72626" lon="6.04431">
        <ele>231.27</ele>
        <time>2022-03-18T09:22:44Z</time>
      </trkpt>
      <trkpt lat="47.72613" lon="6.04404">
        <ele>229.26</ele>
        <time>2022-03-18T09:22:48Z</time>
      </trkpt>
      <trkpt lat="47.72602" lon="6.04377">
        <ele>228.08</ele>
        <time>2022-03-18T09:22:52Z</time>
      </trkpt>
      <trkpt lat="47.72589" lon="6.04353">
        <ele>227.3</ele>
        <time>2022-03-18T09:22:56Z</time>
      </trkpt>
      <trkpt lat="47.72582" lon="6.04328">
        <ele>226.56</ele>
        <time>2022-03-18T09:22:59Z</time>
      </trkpt>
      <trkpt lat="47.7257" lon="6.04302">
        <ele>225.65</ele>
        <time>2022-03-18T09:23:03Z</time>
      </trkpt>
      <trkpt lat="47.72559" lon="6.04277">
        <ele>223.68</ele>
        <time>2022-03-18T09:23:07Z</time>
      </trkpt>
      <trkpt lat="47.72565" lon="6.04252">
        <ele>221.17</ele>
        <time>2022-03-18T09:23:12Z</time>
      </trkpt>
      <trkpt lat="47.72581" lon="6.04235">
        <ele>221.12</ele>
        <time>2022-03-18T09:23:17Z</time>
      </trkpt>
      <trkpt lat="47.72597" lon="6.04219">
        <ele>221.69</ele>
        <time>2022-03-18T09:23:23Z</time>
      </trkpt>
      <trkpt lat="47.72613" lon="6.04202">
        <ele>220.63</ele>
        <time>2022-03-18T09:23:30Z</time>
      </trkpt>
      <trkpt lat="47.72629" lon="6.04185">
        <ele>220.1</ele>
        <time>2022-03-18T09:23:38Z</time>
      </trkpt>
      <trkpt lat="47.72645" lon="6.04169">
        <ele>218.82</ele>
        <time>2022-03-18T09:23:46Z</time>
      </trkpt>
      <trkpt lat="47.72659" lon="6.04153">
        <ele>217.38</ele>
        <time>2022-03-18T09:23:54Z</time>
      </trkpt>
      <trkpt lat="47.72661" lon="6.04125">
        <ele>218.64</ele>
        <time>2022-03-18T09:24:04Z</time>
      </trkpt>
      <trkpt lat="47.72656" lon="6.04098">
        <ele>220.9</ele>
        <time>2022-03-18T09:24:12Z</time>
      </trkpt>
      <trkpt lat="47.72649" lon="6.04068">
        <ele>222.79</ele>
        <time>2022-03-18T09:24:20Z</time>
      </trkpt>
      <trkpt lat="47.72642" lon="6.04039">
        <ele>223.78</ele>
        <time>2022-03-18T09:24:28Z</time>
      </trkpt>
      <trkpt lat="47.72635" lon="6.04013">
        <ele>223.97</ele>
        <time>2022-03-18T09:24:33Z</time>
      </trkpt>
      <trkpt lat="47.7263" lon="6.03987">
        <ele>223.88</ele>
        <time>2022-03-18T09:24:37Z</time>
      </trkpt>
      <trkpt lat="47.72621" lon="6.03958">
        <ele>224.07</ele>
        <time>2022-03-18T09:24:41Z</time>
      </trkpt>
      <trkpt lat="47.72615" lon="6.03923">
        <ele>225.43</ele>
        <time>2022-03-18T09:24:45Z</time>
      </trkpt>
      <trkpt lat="47.7261" lon="6.03896">
        <ele>225.72</ele>
        <time>2022-03-18T09:24:48Z</time>
      </trkpt>
      <trkpt lat="47.72603" lon="6.03866">
        <ele>225.26</ele>
        <time>2022-03-18T09:24:51Z</time>
      </trkpt>
      <trkpt lat="47.72595" lon="6.03834">
        <ele>225.44</ele>
        <time>2022-03-18T09:24:54Z</time>
      </trkpt>
      <trkpt lat="47.72588" lon="6.03804">
        <ele>225.01</ele>
        <time>2022-03-18T09:24:57Z</time>
      </trkpt>
      <trkpt lat="47.72581" lon="6.03777">
        <ele>225.26</ele>
        <time>2022-03-18T09:25:00Z</time>
      </trkpt>
      <trkpt lat="47.72577" lon="6.03751">
        <ele>226.6</ele>
        <time>2022-03-18T09:25:03Z</time>
      </trkpt>
      <trkpt lat="47.72572" lon="6.03719">
        <ele>228.2</ele>
        <time>2022-03-18T09:25:07Z</time>
      </trkpt>
      <trkpt lat="47.72568" lon="6.03691">
        <ele>228.97</ele>
        <time>2022-03-18T09:25:11Z</time>
      </trkpt>
      <trkpt lat="47.72568" lon="6.0366">
        <ele>229.57</ele>
        <time>2022-03-18T09:25:17Z</time>
      </trkpt>
      <trkpt lat="47.72566" lon="6.03629">
        <ele>230.69</ele>
        <time>2022-03-18T09:25:23Z</time>
      </trkpt>
      <trkpt lat="47.72562" lon="6.03599">
        <ele>232.26</ele>
        <time>2022-03-18T09:25:30Z</time>
      </trkpt>
      <trkpt lat="47.72559" lon="6.03571">
        <ele>233.89</ele>
        <time>2022-03-18T09:25:37Z</time>
      </trkpt>
      <trkpt lat="47.72559" lon="6.03542">
        <ele>234.46</ele>
        <time>2022-03-18T09:25:43Z</time>
      </trkpt>
      <trkpt lat="47.72548" lon="6.03518">
        <ele>235.81</ele>
        <time>2022-03-18T09:25:52Z</time>
      </trkpt>
      <trkpt lat="47.72539" lon="6.03493">
        <ele>237.68</ele>
        <time>2022-03-18T09:26:02Z</time>
      </trkpt>
      <trkpt lat="47.72533" lon="6.03465">
        <ele>239.98</ele>
        <time>2022-03-18T09:26:10Z</time>
      </trkpt>
      <trkpt lat="47.72529" lon="6.03437">
        <ele>243.39</ele>
        <time>2022-03-18T09:26:18Z</time>
      </trkpt>
      <trkpt lat="47.72526" lon="6.0341">
        <ele>244.82</ele>
        <time>2022-03-18T09:26:25Z</time>
      </trkpt>
      <trkpt lat="47.72515" lon="6.03387">
        <ele>248.67</ele>
        <time>2022-03-18T09:26:33Z</time>
      </trkpt>
      <trkpt lat="47.72505" lon="6.03362">
        <ele>251.35</ele>
        <time>2022-03-18T09:26:41Z</time>
      </trkpt>
      <trkpt lat="47.725" lon="6.03333">
        <ele>250.7</ele>
        <time>2022-03-18T09:26:49Z</time>
      </trkpt>
      <trkpt lat="47.72493" lon="6.03308">
        <ele>252.34</ele>
        <time>2022-03-18T09:26:57Z</time>
      </trkpt>
      <trkpt lat="47.72486" lon="6.03283">
        <ele>254.35</ele>
        <time>2022-03-18T09:27:05Z</time>
      </trkpt>
      <trkpt lat="47.72477" lon="6.0326">
        <ele>255.72</ele>
        <time>2022-03-18T09:27:12Z</time>
      </trkpt>
      <trkpt lat="47.72467" lon="6.03235">
        <ele>256.3</ele>
        <time>2022-03-18T09:27:20Z</time>
      </trkpt>
      <trkpt lat="47.72458" lon="6.03211">
        <ele>258.3</ele>
        <time>2022-03-18T09:27:28Z</time>
      </trkpt>
      <trkpt lat="47.72451" lon="6.03186">
        <ele>260.23</ele>
        <time>2022-03-18T09:27:36Z</time>
      </trkpt>
      <trkpt lat="47.72442" lon="6.03163">
        <ele>261.16</ele>
        <time>2022-03-18T09:27:43Z</time>
      </trkpt>
      <trkpt lat="47.7243" lon="6.03139">
        <ele>265.73</ele>
        <time>2022-03-18T09:27:52Z</time>
      </trkpt>
      <trkpt lat="47.72421" lon="6.03111">
        <ele>266.74</ele>
        <time>2022-03-18T09:28:00Z</time>
      </trkpt>
      <trkpt lat="47.72415" lon="6.03086">
        <ele>264.67</ele>
        <time>2022-03-18T09:28:07Z</time>
      </trkpt>
      <trkpt lat="47.72408" lon="6.03057">
        <ele>263.56</ele>
        <time>2022-03-18T09:28:15Z</time>
      </trkpt>
      <trkpt lat="47.72394" lon="6.03036">
        <ele>262.55</ele>
        <time>2022-03-18T09:28:23Z</time>
      </trkpt>
      <trkpt lat="47.72379" lon="6.03016">
        <ele>262.17</ele>
        <time>2022-03-18T09:28:30Z</time>
      </trkpt>
      <trkpt lat="47.72366" lon="6.02996">
        <ele>261.99</ele>
        <time>2022-03-18T09:28:37Z</time>
      </trkpt>
      <trkpt lat="47.72352" lon="6.02977">
        <ele>262.81</ele>
        <time>2022-03-18T09:28:44Z</time>
      </trkpt>
      <trkpt lat="47.72339" lon="6.02955">
        <ele>265.66</ele>
        <time>2022-03-18T09:28:52Z</time>
      </trkpt>
      <trkpt lat="47.72321" lon="6.02943">
        <ele>266.37</ele>
        <time>2022-03-18T09:28:59Z</time>
      </trkpt>
      <trkpt lat="47.72311" lon="6.02921">
        <ele>265.5</ele>
        <time>2022-03-18T09:29:05Z</time>
      </trkpt>
      <trkpt lat="47.72296" lon="6.02898">
        <ele>267.33</ele>
        <time>2022-03-18T09:29:11Z</time>
      </trkpt>
      <trkpt lat="47.72287" lon="6.02869">
        <ele>270.55</ele>
        <time>2022-03-18T09:29:16Z</time>
      </trkpt>
      <trkpt lat="47.72282" lon="6.0284">
        <ele>269.44</ele>
        <time>2022-03-18T09:29:21Z</time>
      </trkpt>
      <trkpt lat="47.72294" lon="6.02812">
        <ele>267.63</ele>
        <time>2022-03-18T09:29:26Z</time>
      </trkpt>
      <trkpt lat="47.72306" lon="6.02788">
        <ele>265.79</ele>
        <time>2022-03-18T09:29:30Z</time>
      </trkpt>
      <trkpt lat="47.72318" lon="6.02768">
        <ele>264.26</ele>
        <time>2022-03-18T09:29:33Z</time>
      </trkpt>
      <trkpt lat="47.72332" lon="6.02745">
        <ele>262.45</ele>
        <time>2022-03-18T09:29:36Z</time>
      </trkpt>
      <trkpt lat="47.72346" lon="6.02723">
        <ele>261.35</ele>
        <time>2022-03-18T09:29:39Z</time>
      </trkpt>
      <trkpt lat="47.72361" lon="6.027">
        <ele>260.79</ele>
        <time>2022-03-18T09:29:42Z</time>
      </trkpt>
      <trkpt lat="47.72378" lon="6.02676">
        <ele>259.73</ele>
        <time>2022-03-18T09:29:45Z</time>
      </trkpt>
      <trkpt lat="47.72394" lon="6.02651">
        <ele>258.46</ele>
        <time>2022-03-18T09:29:48Z</time>
      </trkpt>
      <trkpt lat="47.72411" lon="6.02626">
        <ele>257.08</ele>
        <time>2022-03-18T09:29:51Z</time>
      </trkpt>
      <trkpt lat="47.72427" lon="6.026">
        <ele>255.43</ele>
        <time>2022-03-18T09:29:54Z</time>
      </trkpt>
      <trkpt lat="47.72437" lon="6.02568">
        <ele>253.96</ele>
        <time>2022-03-18T09:29:57Z</time>
      </trkpt>
      <trkpt lat="47.7244" lon="6.02533">
        <ele>253.03</ele>
        <time>2022-03-18T09:30:00Z</time>
      </trkpt>
      <trkpt lat="47.72441" lon="6.02501">
        <ele>252.51</ele>
        <time>2022-03-18T09:30:03Z</time>
      </trkpt>
      <trkpt lat="47.72439" lon="6.02471">
        <ele>252.25</ele>
        <time>2022-03-18T09:30:06Z</time>
      </trkpt>
      <trkpt lat="47.72437" lon="6.02436">
        <ele>252.35</ele>
        <time>2022-03-18T09:30:09Z</time>
      </trkpt>
      <trkpt lat="47.72435" lon="6.02408">
        <ele>252.78</ele>
        <time>2022-03-18T09:30:12Z</time>
      </trkpt>
      <trkpt lat="47.72434" lon="6.02381">
        <ele>252.47</ele>
        <time>2022-03-18T09:30:15Z</time>
      </trkpt>
      <trkpt lat="47.72436" lon="6.02351">
        <ele>253.08</ele>
        <time>2022-03-18T09:30:20Z</time>
      </trkpt>
      <trkpt lat="47.72429" lon="6.02324">
        <ele>252.92</ele>
        <time>2022-03-18T09:30:27Z</time>
      </trkpt>
      <trkpt lat="47.72425" lon="6.02296">
        <ele>256.86</ele>
        <time>2022-03-18T09:30:38Z</time>
      </trkpt>
      <trkpt lat="47.72421" lon="6.02269">
        <ele>261.45</ele>
        <time>2022-03-18T09:30:47Z</time>
      </trkpt>
      <trkpt lat="47.72409" lon="6.02248">
        <ele>268.79</ele>
        <time>2022-03-18T09:30:59Z</time>
      </trkpt>
      <trkpt lat="47.72403" lon="6.02201">
        <ele>271.05</ele>
        <time>2022-03-18T09:31:20Z</time>
      </trkpt>
      <trkpt lat="47.72363" lon="6.02189">
        <ele>269.95</ele>
        <time>2022-03-18T09:31:48Z</time>
      </trkpt>
      <trkpt lat="47.7232" lon="6.02217">
        <ele>265.75</ele>
        <time>2022-03-18T09:32:19Z</time>
      </trkpt>
      <trkpt lat="47.72281" lon="6.02272">
        <ele>264.6</ele>
        <time>2022-03-18T09:33:00Z</time>
      </trkpt>
      <trkpt lat="47.72261" lon="6.02282">
        <ele>266.23</ele>
        <time>2022-03-18T09:33:07Z</time>
      </trkpt>
      <trkpt lat="47.72248" lon="6.02262">
        <ele>258.18</ele>
        <time>2022-03-18T09:33:59Z</time>
      </trkpt>
      <trkpt lat="47.7223" lon="6.02268">
        <ele>259.34</ele>
        <time>2022-03-18T09:34:06Z</time>
      </trkpt>
      <trkpt lat="47.72211" lon="6.02274">
        <ele>259.18</ele>
        <time>2022-03-18T09:34:14Z</time>
      </trkpt>
      <trkpt lat="47.72191" lon="6.02281">
        <ele>260.77</ele>
        <time>2022-03-18T09:34:24Z</time>
      </trkpt>
      <trkpt lat="47.72172" lon="6.02274">
        <ele>261.63</ele>
        <time>2022-03-18T09:34:30Z</time>
      </trkpt>
      <trkpt lat="47.72153" lon="6.02273">
        <ele>261.56</ele>
        <time>2022-03-18T09:34:34Z</time>
      </trkpt>
      <trkpt lat="47.72128" lon="6.02275">
        <ele>260.81</ele>
        <time>2022-03-18T09:34:38Z</time>
      </trkpt>
      <trkpt lat="47.72108" lon="6.02278">
        <ele>260.2</ele>
        <time>2022-03-18T09:34:41Z</time>
      </trkpt>
      <trkpt lat="47.72086" lon="6.02283">
        <ele>259.12</ele>
        <time>2022-03-18T09:34:44Z</time>
      </trkpt>
      <trkpt lat="47.72064" lon="6.02288">
        <ele>257.61</ele>
        <time>2022-03-18T09:34:47Z</time>
      </trkpt>
      <trkpt lat="47.72041" lon="6.02293">
        <ele>256</ele>
        <time>2022-03-18T09:34:50Z</time>
      </trkpt>
      <trkpt lat="47.72018" lon="6.02295">
        <ele>254.79</ele>
        <time>2022-03-18T09:34:53Z</time>
      </trkpt>
      <trkpt lat="47.71997" lon="6.02289">
        <ele>254.07</ele>
        <time>2022-03-18T09:34:56Z</time>
      </trkpt>
      <trkpt lat="47.71975" lon="6.02276">
        <ele>253.2</ele>
        <time>2022-03-18T09:34:59Z</time>
      </trkpt>
      <trkpt lat="47.71954" lon="6.02256">
        <ele>252.86</ele>
        <time>2022-03-18T09:35:02Z</time>
      </trkpt>
      <trkpt lat="47.71934" lon="6.0223">
        <ele>252.71</ele>
        <time>2022-03-18T09:35:05Z</time>
      </trkpt>
      <trkpt lat="47.71924" lon="6.02194">
        <ele>254.48</ele>
        <time>2022-03-18T09:35:08Z</time>
      </trkpt>
      <trkpt lat="47.71926" lon="6.02162">
        <ele>256.21</ele>
        <time>2022-03-18T09:35:10Z</time>
      </trkpt>
      <trkpt lat="47.71924" lon="6.02134">
        <ele>257.67</ele>
        <time>2022-03-18T09:35:12Z</time>
      </trkpt>
      <trkpt lat="47.71909" lon="6.02118">
        <ele>256.95</ele>
        <time>2022-03-18T09:35:14Z</time>
      </trkpt>
      <trkpt lat="47.71894" lon="6.02095">
        <ele>255.54</ele>
        <time>2022-03-18T09:35:17Z</time>
      </trkpt>
      <trkpt lat="47.71885" lon="6.02068">
        <ele>255.1</ele>
        <time>2022-03-18T09:35:20Z</time>
      </trkpt>
      <trkpt lat="47.71875" lon="6.02043">
        <ele>253.58</ele>
        <time>2022-03-18T09:35:23Z</time>
      </trkpt>
      <trkpt lat="47.71871" lon="6.02016">
        <ele>252.58</ele>
        <time>2022-03-18T09:35:26Z</time>
      </trkpt>
      <trkpt lat="47.71866" lon="6.01986">
        <ele>253.55</ele>
        <time>2022-03-18T09:35:30Z</time>
      </trkpt>
      <trkpt lat="47.71865" lon="6.01952">
        <ele>255.48</ele>
        <time>2022-03-18T09:35:34Z</time>
      </trkpt>
      <trkpt lat="47.71864" lon="6.01919">
        <ele>258.55</ele>
        <time>2022-03-18T09:35:39Z</time>
      </trkpt>
      <trkpt lat="47.71863" lon="6.0189">
        <ele>262.05</ele>
        <time>2022-03-18T09:35:44Z</time>
      </trkpt>
      <trkpt lat="47.71856" lon="6.01861">
        <ele>267.09</ele>
        <time>2022-03-18T09:35:50Z</time>
      </trkpt>
      <trkpt lat="47.71853" lon="6.0183">
        <ele>271.49</ele>
        <time>2022-03-18T09:35:55Z</time>
      </trkpt>
      <trkpt lat="47.71848" lon="6.01795">
        <ele>276.86</ele>
        <time>2022-03-18T09:36:00Z</time>
      </trkpt>
      <trkpt lat="47.7184" lon="6.01769">
        <ele>278.4</ele>
        <time>2022-03-18T09:36:04Z</time>
      </trkpt>
      <trkpt lat="47.7183" lon="6.01744">
        <ele>282.12</ele>
        <time>2022-03-18T09:36:09Z</time>
      </trkpt>
      <trkpt lat="47.7182" lon="6.0172">
        <ele>286.74</ele>
        <time>2022-03-18T09:36:14Z</time>
      </trkpt>
      <trkpt lat="47.71815" lon="6.0169">
        <ele>290.84</ele>
        <time>2022-03-18T09:36:19Z</time>
      </trkpt>
      <trkpt lat="47.71808" lon="6.01664">
        <ele>291.85</ele>
        <time>2022-03-18T09:36:23Z</time>
      </trkpt>
      <trkpt lat="47.71798" lon="6.01635">
        <ele>288.22</ele>
        <time>2022-03-18T09:36:28Z</time>
      </trkpt>
      <trkpt lat="47.71781" lon="6.01626">
        <ele>284.22</ele>
        <time>2022-03-18T09:36:33Z</time>
      </trkpt>
      <trkpt lat="47.71762" lon="6.01609">
        <ele>284.25</ele>
        <time>2022-03-18T09:36:37Z</time>
      </trkpt>
      <trkpt lat="47.71752" lon="6.01586">
        <ele>285.68</ele>
        <time>2022-03-18T09:36:41Z</time>
      </trkpt>
      <trkpt lat="47.71741" lon="6.01558">
        <ele>287.32</ele>
        <time>2022-03-18T09:36:45Z</time>
      </trkpt>
      <trkpt lat="47.71725" lon="6.01541">
        <ele>289.16</ele>
        <time>2022-03-18T09:36:50Z</time>
      </trkpt>
      <trkpt lat="47.71707" lon="6.01525">
        <ele>290.47</ele>
        <time>2022-03-18T09:36:57Z</time>
      </trkpt>
      <trkpt lat="47.71694" lon="6.01507">
        <ele>290.33</ele>
        <time>2022-03-18T09:37:03Z</time>
      </trkpt>
      <trkpt lat="47.71673" lon="6.01505">
        <ele>288.56</ele>
        <time>2022-03-18T09:37:08Z</time>
      </trkpt>
      <trkpt lat="47.71655" lon="6.01492">
        <ele>288.05</ele>
        <time>2022-03-18T09:37:14Z</time>
      </trkpt>
      <trkpt lat="47.71644" lon="6.01467">
        <ele>286.82</ele>
        <time>2022-03-18T09:37:24Z</time>
      </trkpt>
      <trkpt lat="47.71641" lon="6.0144">
        <ele>285.3</ele>
        <time>2022-03-18T09:37:31Z</time>
      </trkpt>
      <trkpt lat="47.71642" lon="6.01412">
        <ele>285.36</ele>
        <time>2022-03-18T09:37:38Z</time>
      </trkpt>
      <trkpt lat="47.71645" lon="6.01385">
        <ele>287.94</ele>
        <time>2022-03-18T09:37:46Z</time>
      </trkpt>
      <trkpt lat="47.71634" lon="6.01361">
        <ele>289.44</ele>
        <time>2022-03-18T09:37:57Z</time>
      </trkpt>
      <trkpt lat="47.71619" lon="6.01342">
        <ele>286.31</ele>
        <time>2022-03-18T09:38:08Z</time>
      </trkpt>
      <trkpt lat="47.71604" lon="6.01325">
        <ele>287.64</ele>
        <time>2022-03-18T09:38:20Z</time>
      </trkpt>
      <trkpt lat="47.7159" lon="6.01307">
        <ele>288.55</ele>
        <time>2022-03-18T09:38:31Z</time>
      </trkpt>
      <trkpt lat="47.71574" lon="6.01292">
        <ele>289.93</ele>
        <time>2022-03-18T09:38:40Z</time>
      </trkpt>
      <trkpt lat="47.71561" lon="6.01268">
        <ele>291.34</ele>
        <time>2022-03-18T09:38:48Z</time>
      </trkpt>
      <trkpt lat="47.71549" lon="6.01243">
        <ele>292.85</ele>
        <time>2022-03-18T09:38:55Z</time>
      </trkpt>
      <trkpt lat="47.71541" lon="6.01218">
        <ele>292.99</ele>
        <time>2022-03-18T09:39:02Z</time>
      </trkpt>
      <trkpt lat="47.71532" lon="6.01191">
        <ele>291.56</ele>
        <time>2022-03-18T09:39:08Z</time>
      </trkpt>
      <trkpt lat="47.71526" lon="6.01163">
        <ele>289.79</ele>
        <time>2022-03-18T09:39:13Z</time>
      </trkpt>
      <trkpt lat="47.71511" lon="6.01144">
        <ele>287.31</ele>
        <time>2022-03-18T09:39:18Z</time>
      </trkpt>
      <trkpt lat="47.71502" lon="6.01113">
        <ele>285.73</ele>
        <time>2022-03-18T09:39:22Z</time>
      </trkpt>
      <trkpt lat="47.7149" lon="6.01091">
        <ele>286.19</ele>
        <time>2022-03-18T09:39:26Z</time>
      </trkpt>
      <trkpt lat="47.71479" lon="6.01067">
        <ele>287.03</ele>
        <time>2022-03-18T09:39:30Z</time>
      </trkpt>
      <trkpt lat="47.71469" lon="6.0104">
        <ele>286.88</ele>
        <time>2022-03-18T09:39:34Z</time>
      </trkpt>
      <trkpt lat="47.71458" lon="6.01012">
        <ele>286.36</ele>
        <time>2022-03-18T09:39:38Z</time>
      </trkpt>
      <trkpt lat="47.71442" lon="6.00996">
        <ele>286</ele>
        <time>2022-03-18T09:39:42Z</time>
      </trkpt>
      <trkpt lat="47.71434" lon="6.00969">
        <ele>285.18</ele>
        <time>2022-03-18T09:39:45Z</time>
      </trkpt>
      <trkpt lat="47.71426" lon="6.00943">
        <ele>283.88</ele>
        <time>2022-03-18T09:39:50Z</time>
      </trkpt>
      <trkpt lat="47.71416" lon="6.00917">
        <ele>281.17</ele>
        <time>2022-03-18T09:39:56Z</time>
      </trkpt>
      <trkpt lat="47.7141" lon="6.00891">
        <ele>280.71</ele>
        <time>2022-03-18T09:40:00Z</time>
      </trkpt>
      <trkpt lat="47.71403" lon="6.00867">
        <ele>279.29</ele>
        <time>2022-03-18T09:40:04Z</time>
      </trkpt>
      <trkpt lat="47.71392" lon="6.0084">
        <ele>275.38</ele>
        <time>2022-03-18T09:40:09Z</time>
      </trkpt>
      <trkpt lat="47.71374" lon="6.00833">
        <ele>272.19</ele>
        <time>2022-03-18T09:40:14Z</time>
      </trkpt>
      <trkpt lat="47.71356" lon="6.00832">
        <ele>270.68</ele>
        <time>2022-03-18T09:40:19Z</time>
      </trkpt>
      <trkpt lat="47.71336" lon="6.00831">
        <ele>268.53</ele>
        <time>2022-03-18T09:40:25Z</time>
      </trkpt>
      <trkpt lat="47.71318" lon="6.0083">
        <ele>267.69</ele>
        <time>2022-03-18T09:40:31Z</time>
      </trkpt>
      <trkpt lat="47.71295" lon="6.00826">
        <ele>266.8</ele>
        <time>2022-03-18T09:40:51Z</time>
      </trkpt>
      <trkpt lat="47.71278" lon="6.00812">
        <ele>264.67</ele>
        <time>2022-03-18T09:40:58Z</time>
      </trkpt>
      <trkpt lat="47.71264" lon="6.00795">
        <ele>265.47</ele>
        <time>2022-03-18T09:41:03Z</time>
      </trkpt>
      <trkpt lat="47.71245" lon="6.00774">
        <ele>266.46</ele>
        <time>2022-03-18T09:41:08Z</time>
      </trkpt>
      <trkpt lat="47.71227" lon="6.00757">
        <ele>267.38</ele>
        <time>2022-03-18T09:41:12Z</time>
      </trkpt>
      <trkpt lat="47.7121" lon="6.00745">
        <ele>267.79</ele>
        <time>2022-03-18T09:41:15Z</time>
      </trkpt>
      <trkpt lat="47.7119" lon="6.00733">
        <ele>267.46</ele>
        <time>2022-03-18T09:41:18Z</time>
      </trkpt>
      <trkpt lat="47.71168" lon="6.00721">
        <ele>266.46</ele>
        <time>2022-03-18T09:41:21Z</time>
      </trkpt>
      <trkpt lat="47.71143" lon="6.00709">
        <ele>264.58</ele>
        <time>2022-03-18T09:41:24Z</time>
      </trkpt>
      <trkpt lat="47.71126" lon="6.007">
        <ele>262.83</ele>
        <time>2022-03-18T09:41:26Z</time>
      </trkpt>
      <trkpt lat="47.71107" lon="6.00693">
        <ele>261.22</ele>
        <time>2022-03-18T09:41:28Z</time>
      </trkpt>
      <trkpt lat="47.7109" lon="6.00686">
        <ele>260.09</ele>
        <time>2022-03-18T09:41:30Z</time>
      </trkpt>
      <trkpt lat="47.71072" lon="6.00679">
        <ele>259.09</ele>
        <time>2022-03-18T09:41:32Z</time>
      </trkpt>
      <trkpt lat="47.71054" lon="6.00671">
        <ele>258.01</ele>
        <time>2022-03-18T09:41:34Z</time>
      </trkpt>
      <trkpt lat="47.71029" lon="6.0066">
        <ele>256.23</ele>
        <time>2022-03-18T09:41:37Z</time>
      </trkpt>
      <trkpt lat="47.71006" lon="6.00644">
        <ele>253.92</ele>
        <time>2022-03-18T09:41:40Z</time>
      </trkpt>
      <trkpt lat="47.70988" lon="6.0063">
        <ele>251.96</ele>
        <time>2022-03-18T09:41:43Z</time>
      </trkpt>
      <trkpt lat="47.70974" lon="6.00613">
        <ele>253.66</ele>
        <time>2022-03-18T09:41:48Z</time>
      </trkpt>
      <trkpt lat="47.70956" lon="6.00603">
        <ele>254.76</ele>
        <time>2022-03-18T09:41:55Z</time>
      </trkpt>
      <trkpt lat="47.70938" lon="6.00596">
        <ele>255.29</ele>
        <time>2022-03-18T09:42:03Z</time>
      </trkpt>
      <trkpt lat="47.70919" lon="6.00592">
        <ele>253.31</ele>
        <time>2022-03-18T09:42:09Z</time>
      </trkpt>
      <trkpt lat="47.70909" lon="6.00617">
        <ele>259.42</ele>
        <time>2022-03-18T09:42:21Z</time>
      </trkpt>
      <trkpt lat="47.70902" lon="6.00642">
        <ele>258.55</ele>
        <time>2022-03-18T09:44:42Z</time>
      </trkpt>
      <trkpt lat="47.70893" lon="6.00669">
        <ele>259.09</ele>
        <time>2022-03-18T09:44:47Z</time>
      </trkpt>
      <trkpt lat="47.70886" lon="6.00697">
        <ele>259.69</ele>
        <time>2022-03-18T09:44:52Z</time>
      </trkpt>
      <trkpt lat="47.70879" lon="6.00722">
        <ele>259.22</ele>
        <time>2022-03-18T09:44:56Z</time>
      </trkpt>
      <trkpt lat="47.70872" lon="6.00752">
        <ele>259.04</ele>
        <time>2022-03-18T09:45:00Z</time>
      </trkpt>
      <trkpt lat="47.70865" lon="6.0078">
        <ele>258.85</ele>
        <time>2022-03-18T09:45:04Z</time>
      </trkpt>
      <trkpt lat="47.70852" lon="6.00808">
        <ele>259.23</ele>
        <time>2022-03-18T09:45:08Z</time>
      </trkpt>
      <trkpt lat="47.70839" lon="6.00831">
        <ele>258.55</ele>
        <time>2022-03-18T09:45:11Z</time>
      </trkpt>
      <trkpt lat="47.70825" lon="6.00855">
        <ele>257.7</ele>
        <time>2022-03-18T09:45:14Z</time>
      </trkpt>
      <trkpt lat="47.70811" lon="6.00883">
        <ele>256.43</ele>
        <time>2022-03-18T09:45:17Z</time>
      </trkpt>
      <trkpt lat="47.70803" lon="6.00915">
        <ele>255.1</ele>
        <time>2022-03-18T09:45:20Z</time>
      </trkpt>
      <trkpt lat="47.70801" lon="6.00946">
        <ele>255.53</ele>
        <time>2022-03-18T09:45:23Z</time>
      </trkpt>
      <trkpt lat="47.70802" lon="6.00976">
        <ele>256.7</ele>
        <time>2022-03-18T09:45:26Z</time>
      </trkpt>
      <trkpt lat="47.70806" lon="6.01007">
        <ele>257.64</ele>
        <time>2022-03-18T09:45:29Z</time>
      </trkpt>
      <trkpt lat="47.70809" lon="6.01039">
        <ele>257.99</ele>
        <time>2022-03-18T09:45:32Z</time>
      </trkpt>
      <trkpt lat="47.70814" lon="6.01068">
        <ele>258.28</ele>
        <time>2022-03-18T09:45:35Z</time>
      </trkpt>
      <trkpt lat="47.70821" lon="6.01095">
        <ele>258.39</ele>
        <time>2022-03-18T09:45:38Z</time>
      </trkpt>
      <trkpt lat="47.70828" lon="6.01121">
        <ele>258.43</ele>
        <time>2022-03-18T09:45:41Z</time>
      </trkpt>
      <trkpt lat="47.70831" lon="6.01154">
        <ele>258.12</ele>
        <time>2022-03-18T09:45:45Z</time>
      </trkpt>
      <trkpt lat="47.70834" lon="6.01187">
        <ele>257.91</ele>
        <time>2022-03-18T09:45:49Z</time>
      </trkpt>
      <trkpt lat="47.70836" lon="6.01214">
        <ele>258.46</ele>
        <time>2022-03-18T09:45:52Z</time>
      </trkpt>
      <trkpt lat="47.70839" lon="6.01248">
        <ele>259.18</ele>
        <time>2022-03-18T09:45:56Z</time>
      </trkpt>
      <trkpt lat="47.70839" lon="6.01282">
        <ele>259.5</ele>
        <time>2022-03-18T09:46:00Z</time>
      </trkpt>
      <trkpt lat="47.7084" lon="6.01309">
        <ele>259.66</ele>
        <time>2022-03-18T09:46:03Z</time>
      </trkpt>
      <trkpt lat="47.70837" lon="6.01338">
        <ele>260.46</ele>
        <time>2022-03-18T09:46:06Z</time>
      </trkpt>
      <trkpt lat="47.70833" lon="6.01368">
        <ele>262.15</ele>
        <time>2022-03-18T09:46:09Z</time>
      </trkpt>
      <trkpt lat="47.70826" lon="6.01397">
        <ele>263.68</ele>
        <time>2022-03-18T09:46:12Z</time>
      </trkpt>
      <trkpt lat="47.70817" lon="6.01422">
        <ele>265.25</ele>
        <time>2022-03-18T09:46:15Z</time>
      </trkpt>
      <trkpt lat="47.70806" lon="6.01448">
        <ele>265.7</ele>
        <time>2022-03-18T09:46:18Z</time>
      </trkpt>
      <trkpt lat="47.70789" lon="6.01474">
        <ele>266.22</ele>
        <time>2022-03-18T09:46:22Z</time>
      </trkpt>
      <trkpt lat="47.70769" lon="6.015">
        <ele>267.6</ele>
        <time>2022-03-18T09:46:25Z</time>
      </trkpt>
      <trkpt lat="47.70749" lon="6.01522">
        <ele>268.56</ele>
        <time>2022-03-18T09:46:27Z</time>
      </trkpt>
      <trkpt lat="47.70734" lon="6.01546">
        <ele>268.8</ele>
        <time>2022-03-18T09:46:29Z</time>
      </trkpt>
      <trkpt lat="47.70718" lon="6.01566">
        <ele>269.29</ele>
        <time>2022-03-18T09:46:31Z</time>
      </trkpt>
      <trkpt lat="47.70715" lon="6.01599">
        <ele>274.37</ele>
        <time>2022-03-18T09:46:37Z</time>
      </trkpt>
      <trkpt lat="47.70713" lon="6.0163">
        <ele>276.75</ele>
        <time>2022-03-18T09:46:42Z</time>
      </trkpt>
      <trkpt lat="47.70703" lon="6.01653">
        <ele>277.79</ele>
        <time>2022-03-18T09:46:45Z</time>
      </trkpt>
      <trkpt lat="47.70694" lon="6.01683">
        <ele>279.34</ele>
        <time>2022-03-18T09:46:48Z</time>
      </trkpt>
      <trkpt lat="47.70684" lon="6.0171">
        <ele>280.02</ele>
        <time>2022-03-18T09:46:51Z</time>
      </trkpt>
      <trkpt lat="47.70669" lon="6.01737">
        <ele>279.71</ele>
        <time>2022-03-18T09:46:54Z</time>
      </trkpt>
      <trkpt lat="47.70659" lon="6.01768">
        <ele>281.13</ele>
        <time>2022-03-18T09:46:58Z</time>
      </trkpt>
      <trkpt lat="47.70654" lon="6.01795">
        <ele>281.82</ele>
        <time>2022-03-18T09:47:01Z</time>
      </trkpt>
      <trkpt lat="47.70655" lon="6.01832">
        <ele>281.11</ele>
        <time>2022-03-18T09:47:04Z</time>
      </trkpt>
      <trkpt lat="47.70656" lon="6.01866">
        <ele>278.7</ele>
        <time>2022-03-18T09:47:07Z</time>
      </trkpt>
      <trkpt lat="47.70663" lon="6.01897">
        <ele>275.89</ele>
        <time>2022-03-18T09:47:10Z</time>
      </trkpt>
      <trkpt lat="47.70665" lon="6.01932">
        <ele>272.59</ele>
        <time>2022-03-18T09:47:14Z</time>
      </trkpt>
      <trkpt lat="47.70664" lon="6.01959">
        <ele>271.72</ele>
        <time>2022-03-18T09:47:17Z</time>
      </trkpt>
      <trkpt lat="47.70663" lon="6.01986">
        <ele>271.88</ele>
        <time>2022-03-18T09:47:20Z</time>
      </trkpt>
      <trkpt lat="47.70665" lon="6.02015">
        <ele>272.76</ele>
        <time>2022-03-18T09:47:24Z</time>
      </trkpt>
      <trkpt lat="47.7066" lon="6.02046">
        <ele>271.61</ele>
        <time>2022-03-18T09:47:29Z</time>
      </trkpt>
      <trkpt lat="47.70653" lon="6.02072">
        <ele>272.38</ele>
        <time>2022-03-18T09:47:35Z</time>
      </trkpt>
      <trkpt lat="47.7064" lon="6.02095">
        <ele>272.1</ele>
        <time>2022-03-18T09:47:39Z</time>
      </trkpt>
      <trkpt lat="47.70633" lon="6.02125">
        <ele>270.04</ele>
        <time>2022-03-18T09:47:45Z</time>
      </trkpt>
      <trkpt lat="47.70616" lon="6.02141">
        <ele>269.53</ele>
        <time>2022-03-18T09:47:49Z</time>
      </trkpt>
      <trkpt lat="47.706" lon="6.02161">
        <ele>270.05</ele>
        <time>2022-03-18T09:47:53Z</time>
      </trkpt>
      <trkpt lat="47.70589" lon="6.02183">
        <ele>269.05</ele>
        <time>2022-03-18T09:47:58Z</time>
      </trkpt>
      <trkpt lat="47.70573" lon="6.022">
        <ele>268.93</ele>
        <time>2022-03-18T09:48:01Z</time>
      </trkpt>
      <trkpt lat="47.70555" lon="6.02227">
        <ele>269.1</ele>
        <time>2022-03-18T09:48:05Z</time>
      </trkpt>
      <trkpt lat="47.70539" lon="6.0225">
        <ele>269.08</ele>
        <time>2022-03-18T09:48:08Z</time>
      </trkpt>
      <trkpt lat="47.70526" lon="6.02268">
        <ele>268.73</ele>
        <time>2022-03-18T09:48:10Z</time>
      </trkpt>
      <trkpt lat="47.70509" lon="6.02289">
        <ele>269.12</ele>
        <time>2022-03-18T09:48:12Z</time>
      </trkpt>
      <trkpt lat="47.70496" lon="6.0231">
        <ele>269.89</ele>
        <time>2022-03-18T09:48:14Z</time>
      </trkpt>
      <trkpt lat="47.70483" lon="6.02336">
        <ele>271.02</ele>
        <time>2022-03-18T09:48:17Z</time>
      </trkpt>
      <trkpt lat="47.70473" lon="6.02367">
        <ele>271.42</ele>
        <time>2022-03-18T09:48:21Z</time>
      </trkpt>
      <trkpt lat="47.70467" lon="6.02397">
        <ele>269.54</ele>
        <time>2022-03-18T09:48:25Z</time>
      </trkpt>
      <trkpt lat="47.70454" lon="6.02421">
        <ele>266.08</ele>
        <time>2022-03-18T09:48:29Z</time>
      </trkpt>
      <trkpt lat="47.7044" lon="6.0244">
        <ele>264.75</ele>
        <time>2022-03-18T09:48:33Z</time>
      </trkpt>
      <trkpt lat="47.70424" lon="6.02459">
        <ele>263.71</ele>
        <time>2022-03-18T09:48:37Z</time>
      </trkpt>
      <trkpt lat="47.70403" lon="6.0248">
        <ele>259.75</ele>
        <time>2022-03-18T09:48:40Z</time>
      </trkpt>
      <trkpt lat="47.70389" lon="6.02501">
        <ele>252.06</ele>
        <time>2022-03-18T09:48:49Z</time>
      </trkpt>
      <trkpt lat="47.70371" lon="6.02515">
        <ele>248.79</ele>
        <time>2022-03-18T09:48:53Z</time>
      </trkpt>
      <trkpt lat="47.70353" lon="6.02534">
        <ele>246.88</ele>
        <time>2022-03-18T09:48:57Z</time>
      </trkpt>
      <trkpt lat="47.70337" lon="6.02553">
        <ele>245.09</ele>
        <time>2022-03-18T09:49:00Z</time>
      </trkpt>
      <trkpt lat="47.70323" lon="6.02574">
        <ele>244.14</ele>
        <time>2022-03-18T09:49:03Z</time>
      </trkpt>
      <trkpt lat="47.70303" lon="6.02595">
        <ele>242.89</ele>
        <time>2022-03-18T09:49:06Z</time>
      </trkpt>
      <trkpt lat="47.70284" lon="6.02617">
        <ele>241.56</ele>
        <time>2022-03-18T09:49:09Z</time>
      </trkpt>
      <trkpt lat="47.70269" lon="6.02634">
        <ele>239.55</ele>
        <time>2022-03-18T09:49:11Z</time>
      </trkpt>
      <trkpt lat="47.70251" lon="6.0266">
        <ele>237.13</ele>
        <time>2022-03-18T09:49:14Z</time>
      </trkpt>
      <trkpt lat="47.70235" lon="6.02686">
        <ele>235.44</ele>
        <time>2022-03-18T09:49:17Z</time>
      </trkpt>
      <trkpt lat="47.70222" lon="6.02714">
        <ele>234.16</ele>
        <time>2022-03-18T09:49:20Z</time>
      </trkpt>
      <trkpt lat="47.70208" lon="6.02742">
        <ele>234</ele>
        <time>2022-03-18T09:49:23Z</time>
      </trkpt>
      <trkpt lat="47.70199" lon="6.02772">
        <ele>232.84</ele>
        <time>2022-03-18T09:49:26Z</time>
      </trkpt>
      <trkpt lat="47.70187" lon="6.02802">
        <ele>231.65</ele>
        <time>2022-03-18T09:49:29Z</time>
      </trkpt>
      <trkpt lat="47.70175" lon="6.02833">
        <ele>230.96</ele>
        <time>2022-03-18T09:49:32Z</time>
      </trkpt>
      <trkpt lat="47.70162" lon="6.02862">
        <ele>230.34</ele>
        <time>2022-03-18T09:49:35Z</time>
      </trkpt>
      <trkpt lat="47.70149" lon="6.02888">
        <ele>229.52</ele>
        <time>2022-03-18T09:49:38Z</time>
      </trkpt>
      <trkpt lat="47.70134" lon="6.02914">
        <ele>228.4</ele>
        <time>2022-03-18T09:49:41Z</time>
      </trkpt>
      <trkpt lat="47.7012" lon="6.02938">
        <ele>228.23</ele>
        <time>2022-03-18T09:49:44Z</time>
      </trkpt>
      <trkpt lat="47.7011" lon="6.02963">
        <ele>228.9</ele>
        <time>2022-03-18T09:49:47Z</time>
      </trkpt>
      <trkpt lat="47.70103" lon="6.02988">
        <ele>230.09</ele>
        <time>2022-03-18T09:49:50Z</time>
      </trkpt>
      <trkpt lat="47.70098" lon="6.03015">
        <ele>230.87</ele>
        <time>2022-03-18T09:49:53Z</time>
      </trkpt>
      <trkpt lat="47.70093" lon="6.03042">
        <ele>231.19</ele>
        <time>2022-03-18T09:49:56Z</time>
      </trkpt>
      <trkpt lat="47.70084" lon="6.0307">
        <ele>231.28</ele>
        <time>2022-03-18T09:49:59Z</time>
      </trkpt>
      <trkpt lat="47.70076" lon="6.03094">
        <ele>232.2</ele>
        <time>2022-03-18T09:50:02Z</time>
      </trkpt>
      <trkpt lat="47.70069" lon="6.0312">
        <ele>234.23</ele>
        <time>2022-03-18T09:50:05Z</time>
      </trkpt>
      <trkpt lat="47.70063" lon="6.03149">
        <ele>236.65</ele>
        <time>2022-03-18T09:50:08Z</time>
      </trkpt>
      <trkpt lat="47.70059" lon="6.03178">
        <ele>237.99</ele>
        <time>2022-03-18T09:50:11Z</time>
      </trkpt>
      <trkpt lat="47.7006" lon="6.03208">
        <ele>237.73</ele>
        <time>2022-03-18T09:50:14Z</time>
      </trkpt>
      <trkpt lat="47.70061" lon="6.03239">
        <ele>237.26</ele>
        <time>2022-03-18T09:50:17Z</time>
      </trkpt>
      <trkpt lat="47.70064" lon="6.03272">
        <ele>236.75</ele>
        <time>2022-03-18T09:50:20Z</time>
      </trkpt>
      <trkpt lat="47.70068" lon="6.03306">
        <ele>236.48</ele>
        <time>2022-03-18T09:50:23Z</time>
      </trkpt>
      <trkpt lat="47.70072" lon="6.03341">
        <ele>236.32</ele>
        <time>2022-03-18T09:50:26Z</time>
      </trkpt>
      <trkpt lat="47.70076" lon="6.03378">
        <ele>234.53</ele>
        <time>2022-03-18T09:50:29Z</time>
      </trkpt>
      <trkpt lat="47.70078" lon="6.03412">
        <ele>233.07</ele>
        <time>2022-03-18T09:50:32Z</time>
      </trkpt>
      <trkpt lat="47.70077" lon="6.03444">
        <ele>232.67</ele>
        <time>2022-03-18T09:50:35Z</time>
      </trkpt>
      <trkpt lat="47.70077" lon="6.03476">
        <ele>233.22</ele>
        <time>2022-03-18T09:50:38Z</time>
      </trkpt>
      <trkpt lat="47.70073" lon="6.03505">
        <ele>234.31</ele>
        <time>2022-03-18T09:50:41Z</time>
      </trkpt>
      <trkpt lat="47.70064" lon="6.03537">
        <ele>236.67</ele>
        <time>2022-03-18T09:50:45Z</time>
      </trkpt>
      <trkpt lat="47.70054" lon="6.03566">
        <ele>235.89</ele>
        <time>2022-03-18T09:50:48Z</time>
      </trkpt>
      <trkpt lat="47.70044" lon="6.03592">
        <ele>235.46</ele>
        <time>2022-03-18T09:50:51Z</time>
      </trkpt>
      <trkpt lat="47.70034" lon="6.03614">
        <ele>234.23</ele>
        <time>2022-03-18T09:50:54Z</time>
      </trkpt>
      <trkpt lat="47.70024" lon="6.03643">
        <ele>229.68</ele>
        <time>2022-03-18T09:50:58Z</time>
      </trkpt>
      <trkpt lat="47.7001" lon="6.03663">
        <ele>227.32</ele>
        <time>2022-03-18T09:51:01Z</time>
      </trkpt>
      <trkpt lat="47.69994" lon="6.03681">
        <ele>226.18</ele>
        <time>2022-03-18T09:51:04Z</time>
      </trkpt>
      <trkpt lat="47.69975" lon="6.037">
        <ele>225.73</ele>
        <time>2022-03-18T09:51:08Z</time>
      </trkpt>
      <trkpt lat="47.69955" lon="6.03714">
        <ele>225.27</ele>
        <time>2022-03-18T09:51:12Z</time>
      </trkpt>
      <trkpt lat="47.69938" lon="6.03723">
        <ele>224.45</ele>
        <time>2022-03-18T09:51:15Z</time>
      </trkpt>
      <trkpt lat="47.69916" lon="6.03733">
        <ele>223.89</ele>
        <time>2022-03-18T09:51:19Z</time>
      </trkpt>
      <trkpt lat="47.69896" lon="6.0374">
        <ele>224.83</ele>
        <time>2022-03-18T09:51:23Z</time>
      </trkpt>
      <trkpt lat="47.69874" lon="6.03748">
        <ele>224.87</ele>
        <time>2022-03-18T09:51:27Z</time>
      </trkpt>
      <trkpt lat="47.69853" lon="6.03756">
        <ele>225.3</ele>
        <time>2022-03-18T09:51:31Z</time>
      </trkpt>
      <trkpt lat="47.69833" lon="6.03765">
        <ele>224.76</ele>
        <time>2022-03-18T09:51:34Z</time>
      </trkpt>
      <trkpt lat="47.69811" lon="6.03776">
        <ele>223.45</ele>
        <time>2022-03-18T09:51:37Z</time>
      </trkpt>
      <trkpt lat="47.69789" lon="6.03787">
        <ele>221.85</ele>
        <time>2022-03-18T09:51:40Z</time>
      </trkpt>
      <trkpt lat="47.69766" lon="6.03794">
        <ele>220.54</ele>
        <time>2022-03-18T09:51:43Z</time>
      </trkpt>
      <trkpt lat="47.69745" lon="6.038">
        <ele>219.92</ele>
        <time>2022-03-18T09:51:46Z</time>
      </trkpt>
      <trkpt lat="47.69724" lon="6.03806">
        <ele>220</ele>
        <time>2022-03-18T09:51:49Z</time>
      </trkpt>
      <trkpt lat="47.69703" lon="6.03811">
        <ele>219.99</ele>
        <time>2022-03-18T09:51:52Z</time>
      </trkpt>
      <trkpt lat="47.69682" lon="6.03815">
        <ele>219.36</ele>
        <time>2022-03-18T09:51:55Z</time>
      </trkpt>
      <trkpt lat="47.69658" lon="6.0382">
        <ele>219.01</ele>
        <time>2022-03-18T09:51:58Z</time>
      </trkpt>
      <trkpt lat="47.69635" lon="6.03822">
        <ele>219.85</ele>
        <time>2022-03-18T09:52:01Z</time>
      </trkpt>
      <trkpt lat="47.69613" lon="6.03823">
        <ele>220.09</ele>
        <time>2022-03-18T09:52:04Z</time>
      </trkpt>
      <trkpt lat="47.69591" lon="6.03821">
        <ele>220.08</ele>
        <time>2022-03-18T09:52:07Z</time>
      </trkpt>
      <trkpt lat="47.69568" lon="6.03819">
        <ele>219.43</ele>
        <time>2022-03-18T09:52:10Z</time>
      </trkpt>
      <trkpt lat="47.69546" lon="6.03816">
        <ele>219.16</ele>
        <time>2022-03-18T09:52:13Z</time>
      </trkpt>
      <trkpt lat="47.69525" lon="6.03815">
        <ele>219.5</ele>
        <time>2022-03-18T09:52:16Z</time>
      </trkpt>
      <trkpt lat="47.69504" lon="6.03812">
        <ele>219.64</ele>
        <time>2022-03-18T09:52:19Z</time>
      </trkpt>
      <trkpt lat="47.69483" lon="6.03809">
        <ele>219.74</ele>
        <time>2022-03-18T09:52:22Z</time>
      </trkpt>
      <trkpt lat="47.69463" lon="6.03806">
        <ele>219.81</ele>
        <time>2022-03-18T09:52:25Z</time>
      </trkpt>
      <trkpt lat="47.69442" lon="6.03802">
        <ele>218.87</ele>
        <time>2022-03-18T09:52:28Z</time>
      </trkpt>
      <trkpt lat="47.69421" lon="6.03801">
        <ele>218.48</ele>
        <time>2022-03-18T09:52:31Z</time>
      </trkpt>
      <trkpt lat="47.69398" lon="6.03803">
        <ele>217.7</ele>
        <time>2022-03-18T09:52:34Z</time>
      </trkpt>
      <trkpt lat="47.69376" lon="6.03803">
        <ele>216.27</ele>
        <time>2022-03-18T09:52:37Z</time>
      </trkpt>
      <trkpt lat="47.69355" lon="6.03801">
        <ele>215.54</ele>
        <time>2022-03-18T09:52:40Z</time>
      </trkpt>
      <trkpt lat="47.69332" lon="6.038">
        <ele>213.97</ele>
        <time>2022-03-18T09:52:43Z</time>
      </trkpt>
      <trkpt lat="47.69309" lon="6.038">
        <ele>212.13</ele>
        <time>2022-03-18T09:52:46Z</time>
      </trkpt>
      <trkpt lat="47.69287" lon="6.03799">
        <ele>210.87</ele>
        <time>2022-03-18T09:52:49Z</time>
      </trkpt>
      <trkpt lat="47.69266" lon="6.03795">
        <ele>210.25</ele>
        <time>2022-03-18T09:52:52Z</time>
      </trkpt>
      <trkpt lat="47.69246" lon="6.03791">
        <ele>210.06</ele>
        <time>2022-03-18T09:52:55Z</time>
      </trkpt>
      <trkpt lat="47.69226" lon="6.03786">
        <ele>210.19</ele>
        <time>2022-03-18T09:52:58Z</time>
      </trkpt>
      <trkpt lat="47.69206" lon="6.03785">
        <ele>210.43</ele>
        <time>2022-03-18T09:53:01Z</time>
      </trkpt>
      <trkpt lat="47.69186" lon="6.0379">
        <ele>210.46</ele>
        <time>2022-03-18T09:53:04Z</time>
      </trkpt>
      <trkpt lat="47.69165" lon="6.03793">
        <ele>208.99</ele>
        <time>2022-03-18T09:53:07Z</time>
      </trkpt>
      <trkpt lat="47.69146" lon="6.03799">
        <ele>208.61</ele>
        <time>2022-03-18T09:53:10Z</time>
      </trkpt>
      <trkpt lat="47.69128" lon="6.03805">
        <ele>208.36</ele>
        <time>2022-03-18T09:53:13Z</time>
      </trkpt>
      <trkpt lat="47.69109" lon="6.03797">
        <ele>209.97</ele>
        <time>2022-03-18T09:53:19Z</time>
      </trkpt>
      <trkpt lat="47.69092" lon="6.03808">
        <ele>216.36</ele>
        <time>2022-03-18T09:54:22Z</time>
      </trkpt>
      <trkpt lat="47.6908" lon="6.03836">
        <ele>217.49</ele>
        <time>2022-03-18T09:54:27Z</time>
      </trkpt>
      <trkpt lat="47.6907" lon="6.03863">
        <ele>217.78</ele>
        <time>2022-03-18T09:54:31Z</time>
      </trkpt>
      <trkpt lat="47.69059" lon="6.03889">
        <ele>217.9</ele>
        <time>2022-03-18T09:54:35Z</time>
      </trkpt>
      <trkpt lat="47.69049" lon="6.03914">
        <ele>218.19</ele>
        <time>2022-03-18T09:54:39Z</time>
      </trkpt>
      <trkpt lat="47.69038" lon="6.03941">
        <ele>218.42</ele>
        <time>2022-03-18T09:54:43Z</time>
      </trkpt>
      <trkpt lat="47.69026" lon="6.0397">
        <ele>218.28</ele>
        <time>2022-03-18T09:54:47Z</time>
      </trkpt>
      <trkpt lat="47.69014" lon="6.04">
        <ele>217.81</ele>
        <time>2022-03-18T09:54:51Z</time>
      </trkpt>
      <trkpt lat="47.69003" lon="6.04022">
        <ele>218.02</ele>
        <time>2022-03-18T09:54:54Z</time>
      </trkpt>
      <trkpt lat="47.68991" lon="6.04052">
        <ele>218.99</ele>
        <time>2022-03-18T09:54:58Z</time>
      </trkpt>
      <trkpt lat="47.68978" lon="6.04073">
        <ele>219.96</ele>
        <time>2022-03-18T09:55:01Z</time>
      </trkpt>
      <trkpt lat="47.68971" lon="6.04099">
        <ele>222.3</ele>
        <time>2022-03-18T09:55:05Z</time>
      </trkpt>
      <trkpt lat="47.68958" lon="6.04128">
        <ele>222.04</ele>
        <time>2022-03-18T09:55:09Z</time>
      </trkpt>
      <trkpt lat="47.68948" lon="6.04157">
        <ele>220.84</ele>
        <time>2022-03-18T09:55:13Z</time>
      </trkpt>
      <trkpt lat="47.68932" lon="6.04181">
        <ele>221.24</ele>
        <time>2022-03-18T09:55:17Z</time>
      </trkpt>
      <trkpt lat="47.68923" lon="6.04207">
        <ele>223.08</ele>
        <time>2022-03-18T09:55:21Z</time>
      </trkpt>
      <trkpt lat="47.68916" lon="6.04235">
        <ele>224.75</ele>
        <time>2022-03-18T09:55:26Z</time>
      </trkpt>
      <trkpt lat="47.68908" lon="6.04261">
        <ele>225.01</ele>
        <time>2022-03-18T09:55:30Z</time>
      </trkpt>
      <trkpt lat="47.68897" lon="6.04288">
        <ele>225.67</ele>
        <time>2022-03-18T09:55:34Z</time>
      </trkpt>
      <trkpt lat="47.68883" lon="6.04314">
        <ele>226.17</ele>
        <time>2022-03-18T09:55:38Z</time>
      </trkpt>
      <trkpt lat="47.6887" lon="6.04333">
        <ele>226.25</ele>
        <time>2022-03-18T09:55:41Z</time>
      </trkpt>
      <trkpt lat="47.68886" lon="6.04351">
        <ele>228.1</ele>
        <time>2022-03-18T09:55:44Z</time>
      </trkpt>
      <trkpt lat="47.68876" lon="6.04379">
        <ele>234.03</ele>
        <time>2022-03-18T09:55:50Z</time>
      </trkpt>
      <trkpt lat="47.68864" lon="6.04407">
        <ele>236.18</ele>
        <time>2022-03-18T09:55:55Z</time>
      </trkpt>
      <trkpt lat="47.68848" lon="6.04429">
        <ele>237.72</ele>
        <time>2022-03-18T09:55:59Z</time>
      </trkpt>
      <trkpt lat="47.68836" lon="6.04451">
        <ele>240.34</ele>
        <time>2022-03-18T09:56:04Z</time>
      </trkpt>
      <trkpt lat="47.68826" lon="6.04478">
        <ele>243.26</ele>
        <time>2022-03-18T09:56:10Z</time>
      </trkpt>
      <trkpt lat="47.68827" lon="6.04507">
        <ele>244.67</ele>
        <time>2022-03-18T09:56:16Z</time>
      </trkpt>
      <trkpt lat="47.68827" lon="6.04538">
        <ele>244.9</ele>
        <time>2022-03-18T09:56:23Z</time>
      </trkpt>
      <trkpt lat="47.6883" lon="6.04567">
        <ele>244.94</ele>
        <time>2022-03-18T09:56:29Z</time>
      </trkpt>
      <trkpt lat="47.68823" lon="6.04594">
        <ele>244.38</ele>
        <time>2022-03-18T09:56:33Z</time>
      </trkpt>
      <trkpt lat="47.68816" lon="6.04619">
        <ele>243.37</ele>
        <time>2022-03-18T09:56:37Z</time>
      </trkpt>
      <trkpt lat="47.68813" lon="6.04646">
        <ele>242.64</ele>
        <time>2022-03-18T09:56:42Z</time>
      </trkpt>
      <trkpt lat="47.68817" lon="6.04676">
        <ele>242.76</ele>
        <time>2022-03-18T09:56:48Z</time>
      </trkpt>
      <trkpt lat="47.68819" lon="6.04707">
        <ele>244.11</ele>
        <time>2022-03-18T09:56:54Z</time>
      </trkpt>
      <trkpt lat="47.68822" lon="6.04734">
        <ele>244.31</ele>
        <time>2022-03-18T09:57:00Z</time>
      </trkpt>
      <trkpt lat="47.68818" lon="6.04761">
        <ele>244.79</ele>
        <time>2022-03-18T09:57:05Z</time>
      </trkpt>
      <trkpt lat="47.68813" lon="6.04791">
        <ele>244.03</ele>
        <time>2022-03-18T09:57:10Z</time>
      </trkpt>
      <trkpt lat="47.68807" lon="6.04817">
        <ele>244.94</ele>
        <time>2022-03-18T09:57:15Z</time>
      </trkpt>
      <trkpt lat="47.68806" lon="6.04848">
        <ele>244.86</ele>
        <time>2022-03-18T09:57:20Z</time>
      </trkpt>
      <trkpt lat="47.68797" lon="6.04873">
        <ele>239.75</ele>
        <time>2022-03-18T09:57:29Z</time>
      </trkpt>
      <trkpt lat="47.68782" lon="6.04858">
        <ele>240.19</ele>
        <time>2022-03-18T09:57:42Z</time>
      </trkpt>
      <trkpt lat="47.68775" lon="6.0483">
        <ele>241.87</ele>
        <time>2022-03-18T09:57:50Z</time>
      </trkpt>
      <trkpt lat="47.68769" lon="6.04804">
        <ele>243.01</ele>
        <time>2022-03-18T09:57:56Z</time>
      </trkpt>
      <trkpt lat="47.68763" lon="6.04777">
        <ele>244.28</ele>
        <time>2022-03-18T09:58:02Z</time>
      </trkpt>
      <trkpt lat="47.68756" lon="6.04748">
        <ele>244.97</ele>
        <time>2022-03-18T09:58:09Z</time>
      </trkpt>
      <trkpt lat="47.68747" lon="6.04723">
        <ele>245.6</ele>
        <time>2022-03-18T09:58:14Z</time>
      </trkpt>
      <trkpt lat="47.68738" lon="6.04695">
        <ele>245.82</ele>
        <time>2022-03-18T09:58:20Z</time>
      </trkpt>
      <trkpt lat="47.68727" lon="6.04668">
        <ele>246.35</ele>
        <time>2022-03-18T09:58:26Z</time>
      </trkpt>
      <trkpt lat="47.68713" lon="6.04644">
        <ele>247.8</ele>
        <time>2022-03-18T09:58:31Z</time>
      </trkpt>
      <trkpt lat="47.68701" lon="6.04622">
        <ele>247.84</ele>
        <time>2022-03-18T09:58:35Z</time>
      </trkpt>
      <trkpt lat="47.68692" lon="6.04597">
        <ele>247.4</ele>
        <time>2022-03-18T09:58:39Z</time>
      </trkpt>
      <trkpt lat="47.68682" lon="6.04567">
        <ele>248.29</ele>
        <time>2022-03-18T09:58:43Z</time>
      </trkpt>
      <trkpt lat="47.68666" lon="6.04547">
        <ele>247.12</ele>
        <time>2022-03-18T09:58:46Z</time>
      </trkpt>
      <trkpt lat="47.68647" lon="6.04528">
        <ele>247.32</ele>
        <time>2022-03-18T09:58:50Z</time>
      </trkpt>
      <trkpt lat="47.68629" lon="6.04546">
        <ele>247.76</ele>
        <time>2022-03-18T09:58:54Z</time>
      </trkpt>
      <trkpt lat="47.68624" lon="6.04572">
        <ele>246.62</ele>
        <time>2022-03-18T09:59:01Z</time>
      </trkpt>
    </trkseg>
  </trk>
</gpx>